Wetterdaten: aktuell Montag, 06.06.2011 18:20
Datum Zeit Temp Feuchte Luftdruck Regen Wind Richtung Richtung Sonnenschein Helligkeit T Regen Solar Taupunkt Windchill
06.06.2011 18:20 24,5 C 43 % 1004 hPa 0,0 l/m 34,3 km/h (5 Bft) S22.5 190 0 min 9,3 klux 0 min 64 W/m 11,1 C 24,5 C
06.06.2011 18:18 24,5 C 43 % 1004 hPa 0,0 l/m 37,2 km/h (5 Bft) S45 185 0 min 10,1 klux 0 min 69 W/m 11,1 C 24,5 C
06.06.2011 18:16 25,0 C 44 % 1004 hPa 0,0 l/m 41,8 km/h (6 Bft) S45 185 0 min 10,1 klux 0 min 69 W/m 11,9 C 25,0 C
06.06.2011 18:14 25,0 C 44 % 1004 hPa 0,0 l/m 41,8 km/h (6 Bft) S45 185 0 min 10,8 klux 0 min 74 W/m 11,9 C 25,0 C
06.06.2011 18:12 25,0 C 44 % 1004 hPa 0,0 l/m 45,7 km/h (6 Bft) S45 185 0 min 11,3 klux 0 min 77 W/m 11,9 C 25,0 C
06.06.2011 18:09 25,6 C 44 % 1004 hPa 0,0 l/m 14,0 km/h (3 Bft) S22.5 180 0 min 11,5 klux 0 min 79 W/m 12,4 C 25,6 C
06.06.2011 18:07 26,0 C 46 % 1003 hPa 0,0 l/m 14,0 km/h (3 Bft) S22.5 180 0 min 11,5 klux 0 min 79 W/m 13,5 C 26,0 C
06.06.2011 18:05 26,0 C 46 % 1003 hPa 0,0 l/m 14,3 km/h (3 Bft) S22.5 190 0 min 12,1 klux 0 min 83 W/m 13,5 C 26,0 C
06.06.2011 18:03 25,3 C 47 % 1003 hPa 0,0 l/m 20,5 km/h (4 Bft) S-SW22.5 195 0 min 12,8 klux 0 min 88 W/m 13,2 C 25,3 C
06.06.2011 18:02 25,3 C 48 % 1003 hPa 0,0 l/m 18,8 km/h (3 Bft) S-SW22.5 205 0 min 13,1 klux 0 min 90 W/m 13,5 C 25,3 C
06.06.2011 17:59 25,5 C 47 % 1003 hPa 0,0 l/m 18,8 km/h (3 Bft) S-SW22.5 205 0 min 13,1 klux 0 min 90 W/m 13,3 C 25,5 C
06.06.2011 17:57 25,5 C 47 % 1003 hPa 0,0 l/m 20,3 km/h (4 Bft) S-SW22.5 200 0 min 12,8 klux 0 min 88 W/m 13,3 C 25,5 C
06.06.2011 17:55 25,6 C 48 % 1003 hPa 0,0 l/m 23,5 km/h (4 Bft) S22.5 190 0 min 12,4 klux 0 min 85 W/m 13,8 C 25,6 C
06.06.2011 17:53 25,6 C 49 % 1003 hPa 0,0 l/m 29,0 km/h (5 Bft) S45 190 0 min 11,6 klux 0 min 79 W/m 14,1 C 25,6 C
06.06.2011 17:51 25,6 C 49 % 1003 hPa 0,0 l/m 29,0 km/h (5 Bft) S45 190 0 min 11,6 klux 0 min 79 W/m 14,1 C 25,6 C
06.06.2011 17:49 25,9 C 50 % 1003 hPa 0,0 l/m 24,5 km/h (4 Bft) S22.5 185 0 min 11,3 klux 0 min 77 W/m 14,7 C 25,9 C
06.06.2011 17:47 25,6 C 52 % 1003 hPa 0,0 l/m 26,4 km/h (4 Bft) S22.5 190 0 min 11,6 klux 0 min 79 W/m 15,0 C 25,6 C
06.06.2011 17:45 25,6 C 52 % 1003 hPa 0,0 l/m 26,4 km/h (4 Bft) S22.5 190 0 min 11,9 klux 0 min 81 W/m 15,0 C 25,6 C
06.06.2011 17:43 25,4 C 54 % 1003 hPa 0,0 l/m 20,7 km/h (4 Bft) S22.5 175 0 min 12,0 klux 0 min 82 W/m 15,4 C 25,4 C
06.06.2011 17:41 25,2 C 54 % 1003 hPa 0,0 l/m 12,5 km/h (2 Bft) S-SO22.5 160 0 min 12,0 klux 0 min 82 W/m 15,2 C 25,2 C
06.06.2011 17:39 25,2 C 54 % 1003 hPa 0,0 l/m 8,5 km/h (2 Bft) O-SO45 115 0 min 12,7 klux 0 min 87 W/m 15,2 C 25,2 C
06.06.2011 17:38 25,1 C 56 % 1003 hPa 0,0 l/m 8,5 km/h (2 Bft) O-SO45 115 0 min 13,2 klux 0 min 90 W/m 15,7 C 25,1 C
06.06.2011 17:36 25,0 C 55 % 1003 hPa 0,0 l/m 8,5 km/h (2 Bft) O 95 0 min 13,6 klux 0 min 93 W/m 15,3 C 25,0 C
06.06.2011 17:34 25,0 C 55 % 1003 hPa 0,0 l/m 7,9 km/h (2 Bft) SO22.5 125 0 min 13,6 klux 0 min 93 W/m 15,3 C 25,0 C
06.06.2011 17:32 25,0 C 55 % 1003 hPa 0,0 l/m 7,9 km/h (2 Bft) SO22.5 125 0 min 14,1 klux 0 min 96 W/m 15,3 C 25,0 C
06.06.2011 17:30 24,9 C 58 % 1003 hPa 0,0 l/m 7,9 km/h (2 Bft) SO22.5 125 0 min 14,2 klux 0 min 97 W/m 16,1 C 24,9 C
06.06.2011 17:28 24,9 C 58 % 1003 hPa 0,0 l/m 7,3 km/h (2 Bft) SO22.5 140 0 min 13,9 klux 0 min 95 W/m 16,1 C 24,9 C
06.06.2011 17:26 24,7 C 58 % 1003 hPa 0,0 l/m 10,5 km/h (2 Bft) SO45 130 0 min 13,9 klux 0 min 95 W/m 15,9 C 24,7 C
06.06.2011 17:24 24,5 C 57 % 1003 hPa 0,0 l/m 10,5 km/h (2 Bft) SO45 130 0 min 12,8 klux 0 min 88 W/m 15,4 C 24,5 C
06.06.2011 17:21 24,5 C 57 % 1003 hPa 0,0 l/m 0,0 km/h (0 Bft) NO 50 0 min 11,4 klux 0 min 78 W/m 15,4 C 24,5 C
06.06.2011 17:19 24,2 C 57 % 1003 hPa 0,0 l/m 0,0 km/h (0 Bft) NO 50 0 min 10,0 klux 0 min 68 W/m 15,1 C 24,2 C
06.06.2011 17:17 24,4 C 55 % 1003 hPa 0,0 l/m 1,7 km/h (1 Bft) O-NO45 75 0 min 10,0 klux 0 min 68 W/m 14,8 C 24,4 C
06.06.2011 17:16 24,4 C 55 % 1003 hPa 0,2 l/m 1,7 km/h (1 Bft) O-NO45 75 0 min 9,1 klux 3 min 62 W/m 14,8 C 24,4 C
06.06.2011 17:13 23,9 C 52 % 1003 hPa 0,2 l/m 10,9 km/h (2 Bft) O-SO67.5 120 0 min 7,61 klux 2 min 52 W/m 13,4 C 23,9 C
06.06.2011 17:11 23,4 C 45 % 1003 hPa 0,0 l/m 16,0 km/h (3 Bft) O67.5 90 0 min 6,70 klux 0 min 46 W/m 10,8 C 23,4 C
06.06.2011 17:09 23,4 C 45 % 1003 hPa 1,2 l/m 16,0 km/h (3 Bft) O67.5 90 0 min 6,70 klux 2 min 46 W/m 10,8 C 23,4 C
06.06.2011 17:07 23,2 C 25 % 1003 hPa 2,7 l/m 58,4 km/h (7 Bft) SO67.5 145 0 min 5,33 klux 2 min 36 W/m 2,1 C 23,2 C
06.06.2011 17:05 30,4 C 25 % 1003 hPa 1,5 l/m 50,0 km/h (7 Bft) S-SW45 195 0 min 4,76 klux 2 min 33 W/m 8,1 C 30,4 C
06.06.2011 17:03 30,4 C 25 % 1003 hPa 0,0 l/m 15,0 km/h (3 Bft) S-SW22.5 195 0 min 6,10 klux 0 min 42 W/m 8,1 C 30,4 C
06.06.2011 17:01 30,4 C 25 % 1003 hPa 0,0 l/m 15,0 km/h (3 Bft) S-SW22.5 195 0 min 8,14 klux 0 min 56 W/m 8,1 C 30,4 C
06.06.2011 16:59 31,8 C 0 % 1003 hPa 0,0 l/m 27,0 km/h (5 Bft) S22.5 180 0 min 8,14 klux 0 min 56 W/m -60,0 C 31,8 C
06.06.2011 16:57 32,4 C 0 % 1003 hPa 0,0 l/m 27,2 km/h (5 Bft) S45 175 0 min 11,2 klux 0 min 77 W/m -60,0 C 32,4 C
06.06.2011 16:56 32,4 C 0 % 1003 hPa 0,0 l/m 22,5 km/h (4 Bft) S45 170 0 min 15,5 klux 0 min 106 W/m -60,0 C 32,4 C
06.06.2011 16:53 32,8 C 0 % 1003 hPa 0,0 l/m 22,5 km/h (4 Bft) S45 170 2 min 65,2 klux 0 min 446 W/m -60,0 C 32,8 C
06.06.2011 16:51 32,8 C 0 % 1003 hPa 0,0 l/m 9,4 km/h (2 Bft) S-SW22.5 205 2 min 65,2 klux 0 min 446 W/m -60,0 C 32,8 C
06.06.2011 16:49 32,8 C 0 % 1003 hPa 0,0 l/m 29,3 km/h (5 Bft) S-SW45 210 2 min 71,3 klux 0 min 488 W/m -60,0 C 32,8 C
06.06.2011 16:47 32,6 C 0 % 1003 hPa 0,0 l/m 29,3 km/h (5 Bft) S-SW45 210 2 min 62,4 klux 0 min 427 W/m -60,0 C 32,6 C
06.06.2011 16:45 32,7 C 21 % 1003 hPa 0,0 l/m 29,1 km/h (5 Bft) S-SW45 195 2 min 62,4 klux 0 min 427 W/m 7,5 C 32,7 C
06.06.2011 16:43 32,7 C 0 % 1003 hPa 0,0 l/m 26,0 km/h (4 Bft) S45 175 2 min 62,4 klux 0 min 427 W/m -60,0 C 32,7 C
06.06.2011 16:41 32,2 C 0 % 1003 hPa 0,0 l/m 29,0 km/h (5 Bft) S-SO22.5 150 2 min 72,0 klux 0 min 492 W/m -60,0 C 32,2 C
06.06.2011 16:39 32,2 C 0 % 1003 hPa 0,0 l/m 29,0 km/h (5 Bft) S-SO22.5 150 2 min 70,9 klux 0 min 485 W/m -60,0 C 32,2 C
06.06.2011 16:37 32,2 C 0 % 1003 hPa 0,0 l/m 25,1 km/h (4 Bft) SO45 140 2 min 70,7 klux 0 min 484 W/m -60,0 C 32,2 C
06.06.2011 16:35 31,8 C 0 % 1003 hPa 0,0 l/m 28,6 km/h (5 Bft) S45 190 1 min 70,7 klux 0 min 484 W/m -60,0 C 31,8 C
06.06.2011 16:34 32,0 C 0 % 1003 hPa 0,0 l/m 29,5 km/h (5 Bft) S45 190 0 min 25,3 klux 0 min 173 W/m -60,0 C 32,0 C
06.06.2011 16:32 32,0 C 0 % 1003 hPa 0,0 l/m 29,5 km/h (5 Bft) S45 190 3 min 68,8 klux 0 min 471 W/m -60,0 C 32,0 C
06.06.2011 16:29 32,2 C 0 % 1003 hPa 0,0 l/m 24,6 km/h (4 Bft) S45 185 2 min 67,1 klux 0 min 459 W/m -60,0 C 32,2 C
06.06.2011 16:27 32,3 C 0 % 1003 hPa 0,0 l/m 22,1 km/h (4 Bft) S-SW22.5 195 2 min 67,1 klux 0 min 459 W/m -60,0 C 32,3 C
06.06.2011 16:25 32,3 C 0 % 1003 hPa 0,0 l/m 22,1 km/h (4 Bft) S-SW22.5 195 0 min 21,6 klux 0 min 148 W/m -60,0 C 32,3 C
06.06.2011 16:23 32,3 C 21 % 1003 hPa 0,0 l/m 27,9 km/h (5 Bft) S-SW45 210 0 min 23,7 klux 0 min 162 W/m 7,2 C 32,3 C
06.06.2011 16:21 32,3 C 21 % 1003 hPa 0,0 l/m 24,7 km/h (4 Bft) S-SO45 160 2 min 74,4 klux 0 min 509 W/m 7,2 C 32,3 C
06.06.2011 16:19 32,3 C 21 % 1003 hPa 0,0 l/m 12,0 km/h (2 Bft) S-SO45 165 0 min 44,7 klux 0 min 306 W/m 7,2 C 32,3 C
06.06.2011 16:17 31,7 C 21 % 1003 hPa 0,0 l/m 12,0 km/h (2 Bft) S-SO45 165 0 min 44,7 klux 0 min 306 W/m 6,7 C 31,7 C
06.06.2011 16:15 31,7 C 21 % 1003 hPa 0,0 l/m 20,2 km/h (4 Bft) S22.5 190 1 min 72,3 klux 0 min 495 W/m 6,7 C 31,7 C
06.06.2011 16:14 31,7 C 21 % 1003 hPa 0,0 l/m 19,8 km/h (3 Bft) S-SW45 205 2 min 72,3 klux 0 min 495 W/m 6,7 C 31,7 C
06.06.2011 16:12 31,4 C 0 % 1003 hPa 0,0 l/m 23,6 km/h (4 Bft) S22.5 190 0 min 24,1 klux 0 min 165 W/m -60,0 C 31,4 C
06.06.2011 16:10 31,6 C 0 % 1003 hPa 0,0 l/m 23,6 km/h (4 Bft) S22.5 190 0 min 24,1 klux 0 min 165 W/m -60,0 C 31,6 C
06.06.2011 16:08 31,6 C 0 % 1003 hPa 0,0 l/m 21,3 km/h (4 Bft) S45 170 0 min 21,6 klux 0 min 148 W/m -60,0 C 31,6 C
06.06.2011 16:06 31,6 C 0 % 1003 hPa 0,0 l/m 13,0 km/h (3 Bft) S-SO67.5 165 0 min 30,0 klux 0 min 205 W/m -60,0 C 31,6 C
06.06.2011 16:03 31,8 C 0 % 1003 hPa 0,0 l/m 13,0 km/h (3 Bft) S-SO67.5 165 0 min 47,4 klux 0 min 324 W/m -60,0 C 31,8 C
06.06.2011 16:02 31,8 C 0 % 1003 hPa 0,0 l/m 21,3 km/h (4 Bft) S22.5 190 0 min 47,4 klux 0 min 324 W/m -60,0 C 31,8 C
06.06.2011 15:59 31,8 C 0 % 1003 hPa 0,0 l/m 21,6 km/h (4 Bft) S45 180 2 min 69,2 klux 0 min 473 W/m -60,0 C 31,8 C
06.06.2011 15:57 31,9 C 0 % 1003 hPa 0,0 l/m 21,7 km/h (4 Bft) S-SO67.5 155 0 min 53,1 klux 0 min 363 W/m -60,0 C 31,9 C
06.06.2011 15:55 31,8 C 0 % 1003 hPa 0,0 l/m 21,7 km/h (4 Bft) S-SO67.5 155 2 min 74,0 klux 0 min 506 W/m -60,0 C 31,8 C
06.06.2011 15:53 31,8 C 0 % 1003 hPa 0,0 l/m 21,6 km/h (4 Bft) S-SO45 160 2 min 74,0 klux 0 min 506 W/m -60,0 C 31,8 C
06.06.2011 15:51 31,9 C 0 % 1003 hPa 0,0 l/m 23,8 km/h (4 Bft) S45 175 2 min 70,5 klux 0 min 482 W/m -60,0 C 31,9 C
06.06.2011 15:49 32,1 C 0 % 1003 hPa 0,0 l/m 23,8 km/h (4 Bft) S45 175 2 min 63,4 klux 0 min 434 W/m -60,0 C 32,1 C
06.06.2011 15:47 32,1 C 0 % 1003 hPa 0,0 l/m 24,3 km/h (4 Bft) S67.5 185 2 min 76,0 klux 0 min 520 W/m -60,0 C 32,1 C
06.06.2011 15:45 32,3 C 0 % 1003 hPa 0,0 l/m 24,5 km/h (4 Bft) S45 170 2 min 76,0 klux 0 min 520 W/m -60,0 C 32,3 C
06.06.2011 15:43 32,3 C 0 % 1003 hPa 0,0 l/m 24,3 km/h (4 Bft) S45 180 2 min 76,8 klux 0 min 525 W/m -60,0 C 32,3 C
06.06.2011 15:41 32,3 C 0 % 1003 hPa 0,0 l/m 24,3 km/h (4 Bft) S45 180 2 min 78,4 klux 0 min 536 W/m -60,0 C 32,3 C
06.06.2011 15:39 32,0 C 0 % 1003 hPa 0,0 l/m 24,2 km/h (4 Bft) S45 180 1 min 74,1 klux 0 min 507 W/m -60,0 C 32,0 C
06.06.2011 15:38 31,9 C 0 % 1003 hPa 0,0 l/m 24,5 km/h (4 Bft) S45 185 2 min 63,6 klux 0 min 435 W/m -60,0 C 31,9 C
06.06.2011 15:36 31,9 C 0 % 1003 hPa 0,0 l/m 31,2 km/h (5 Bft) S45 190 2 min 63,6 klux 0 min 435 W/m -60,0 C 31,9 C
06.06.2011 15:34 32,1 C 0 % 1003 hPa 0,0 l/m 31,2 km/h (5 Bft) S45 190 2 min 75,6 klux 0 min 517 W/m -60,0 C 32,1 C
06.06.2011 15:32 32,4 C 0 % 1003 hPa 0,0 l/m 27,7 km/h (5 Bft) S45 190 0 min 59,2 klux 0 min 405 W/m -60,0 C 32,4 C
06.06.2011 15:29 32,4 C 0 % 1003 hPa 0,0 l/m 23,1 km/h (4 Bft) S45 185 2 min 75,4 klux 0 min 516 W/m -60,0 C 32,4 C
06.06.2011 15:27 32,2 C 0 % 1003 hPa 0,0 l/m 23,1 km/h (4 Bft) S45 185 2 min 75,4 klux 0 min 516 W/m -60,0 C 32,2 C
06.06.2011 15:25 32,1 C 0 % 1003 hPa 0,0 l/m 28,9 km/h (5 Bft) S-SO45 165 2 min 76,3 klux 0 min 522 W/m -60,0 C 32,1 C
06.06.2011 15:23 32,1 C 0 % 1003 hPa 0,0 l/m 24,3 km/h (4 Bft) S45 180 2 min 81,3 klux 0 min 556 W/m -60,0 C 32,1 C
06.06.2011 15:21 32,3 C 0 % 1003 hPa 0,0 l/m 19,4 km/h (3 Bft) S45 190 2 min 76,8 klux 0 min 525 W/m -60,0 C 32,3 C
06.06.2011 15:19 32,3 C 0 % 1003 hPa 0,0 l/m 19,4 km/h (3 Bft) S45 190 2 min 76,8 klux 0 min 525 W/m -60,0 C 32,3 C
06.06.2011 15:17 32,3 C 0 % 1003 hPa 0,0 l/m 19,4 km/h (3 Bft) S45 190 0 min 46,1 klux 0 min 315 W/m -60,0 C 32,3 C
06.06.2011 15:15 31,9 C 0 % 1003 hPa 0,0 l/m 22,3 km/h (4 Bft) S-SO22.5 165 0 min 25,9 klux 0 min 177 W/m -60,0 C 31,9 C
06.06.2011 15:13 32,0 C 0 % 1003 hPa 0,0 l/m 26,4 km/h (4 Bft) S45 180 2 min 80,2 klux 0 min 549 W/m -60,0 C 32,0 C
06.06.2011 15:11 32,0 C 0 % 1003 hPa 0,0 l/m 26,4 km/h (4 Bft) S45 180 2 min 80,2 klux 0 min 549 W/m -60,0 C 32,0 C
06.06.2011 15:09 32,2 C 0 % 1003 hPa 0,0 l/m 21,9 km/h (4 Bft) S-SO45 160 2 min 79,7 klux 0 min 545 W/m -60,0 C 32,2 C
06.06.2011 15:07 32,2 C 0 % 1003 hPa 0,0 l/m 20,0 km/h (4 Bft) S67.5 180 2 min 83,6 klux 0 min 572 W/m -60,0 C 32,2 C
06.06.2011 15:05 32,2 C 0 % 1003 hPa 0,0 l/m 20,0 km/h (4 Bft) S67.5 180 0 min 29,8 klux 0 min 204 W/m -60,0 C 32,2 C
06.06.2011 15:04 32,3 C 0 % 1003 hPa 0,0 l/m 18,0 km/h (3 Bft) S-SW45 200 0 min 29,8 klux 0 min 204 W/m -60,0 C 32,3 C
06.06.2011 15:01 31,9 C 0 % 1003 hPa 0,0 l/m 22,3 km/h (4 Bft) S-SW22.5 200 2 min 87,4 klux 0 min 598 W/m -60,0 C 31,9 C
06.06.2011 14:59 32,0 C 0 % 1003 hPa 0,0 l/m 22,1 km/h (4 Bft) S45 175 1 min 86,9 klux 0 min 594 W/m -60,0 C 32,0 C
06.06.2011 14:58 32,0 C 0 % 1004 hPa 0,0 l/m 22,1 km/h (4 Bft) S45 175 0 min 37,3 klux 0 min 255 W/m -60,0 C 32,0 C
06.06.2011 14:56 31,8 C 0 % 1004 hPa 0,0 l/m 18,9 km/h (3 Bft) S22.5 175 2 min 89,6 klux 0 min 613 W/m -60,0 C 31,8 C
06.06.2011 14:54 31,9 C 0 % 1004 hPa 0,0 l/m 26,3 km/h (4 Bft) S45 170 2 min 89,6 klux 0 min 613 W/m -60,0 C 31,9 C
06.06.2011 14:52 31,9 C 0 % 1004 hPa 0,0 l/m 24,6 km/h (4 Bft) S-SO22.5 150 2 min 88,2 klux 0 min 603 W/m -60,0 C 31,9 C
06.06.2011 14:50 31,9 C 0 % 1004 hPa 0,0 l/m 24,6 km/h (4 Bft) S-SO22.5 150 3 min 85,6 klux 0 min 586 W/m -60,0 C 31,9 C
06.06.2011 14:47 32,1 C 21 % 1004 hPa 0,0 l/m 14,9 km/h (3 Bft) S-SW45 195 2 min 90,3 klux 0 min 618 W/m 7,0 C 32,1 C
06.06.2011 14:45 32,1 C 21 % 1004 hPa 0,0 l/m 25,7 km/h (4 Bft) S45 185 2 min 90,3 klux 0 min 618 W/m 7,0 C 32,1 C
06.06.2011 14:43 31,8 C 21 % 1004 hPa 0,0 l/m 25,7 km/h (4 Bft) S45 185 2 min 88,6 klux 0 min 606 W/m 6,8 C 31,8 C
06.06.2011 14:41 31,4 C 21 % 1004 hPa 0,0 l/m 25,6 km/h (4 Bft) S45 175 2 min 88,6 klux 0 min 606 W/m 6,4 C 31,4 C
06.06.2011 14:39 31,4 C 21 % 1004 hPa 0,0 l/m 19,0 km/h (3 Bft) O-NO45 75 2 min 88,4 klux 0 min 605 W/m 6,4 C 31,4 C
06.06.2011 14:37 31,4 C 21 % 1004 hPa 0,0 l/m 24,8 km/h (4 Bft) SO67.5 135 2 min 88,4 klux 0 min 605 W/m 6,4 C 31,4 C
06.06.2011 14:35 31,4 C 21 % 1004 hPa 0,0 l/m 24,8 km/h (4 Bft) SO67.5 135 0 min 27,2 klux 0 min 186 W/m 6,4 C 31,4 C
06.06.2011 14:33 31,4 C 21 % 1004 hPa 0,0 l/m 23,3 km/h (4 Bft) S67.5 170 0 min 23,4 klux 0 min 160 W/m 6,4 C 31,4 C
06.06.2011 14:31 31,7 C 21 % 1004 hPa 0,0 l/m 25,0 km/h (4 Bft) S22.5 170 2 min 74,1 klux 0 min 507 W/m 6,7 C 31,7 C
06.06.2011 14:29 32,0 C 21 % 1004 hPa 0,0 l/m 25,0 km/h (4 Bft) S22.5 170 2 min 74,1 klux 0 min 507 W/m 6,9 C 32,0 C
06.06.2011 14:27 32,0 C 21 % 1004 hPa 0,0 l/m 20,5 km/h (4 Bft) S45 180 2 min 86,6 klux 0 min 592 W/m 6,9 C 32,0 C
06.06.2011 14:25 32,3 C 21 % 1004 hPa 0,0 l/m 25,5 km/h (4 Bft) S67.5 175 2 min 88,0 klux 0 min 602 W/m 7,2 C 32,3 C
06.06.2011 14:23 32,3 C 21 % 1004 hPa 0,0 l/m 17,1 km/h (3 Bft) S-SO45 155 2 min 88,4 klux 0 min 605 W/m 7,2 C 32,3 C
06.06.2011 14:21 32,3 C 21 % 1004 hPa 0,0 l/m 17,1 km/h (3 Bft) S-SO45 155 2 min 88,4 klux 0 min 605 W/m 7,2 C 32,3 C
06.06.2011 14:19 31,5 C 21 % 1004 hPa 0,0 l/m 19,8 km/h (3 Bft) O-SO45 105 1 min 89,5 klux 0 min 612 W/m 6,5 C 31,5 C
06.06.2011 14:18 31,5 C 21 % 1004 hPa 0,0 l/m 18,8 km/h (3 Bft) SO67.5 125 0 min 32,3 klux 0 min 221 W/m 6,5 C 31,5 C
06.06.2011 14:16 31,5 C 21 % 1004 hPa 0,0 l/m 29,5 km/h (5 Bft) S45 170 0 min 27,8 klux 0 min 190 W/m 6,5 C 31,5 C
06.06.2011 14:14 31,9 C 21 % 1004 hPa 0,0 l/m 29,5 km/h (5 Bft) S45 170 2 min 85,8 klux 0 min 587 W/m 6,8 C 31,9 C
06.06.2011 14:12 31,7 C 21 % 1004 hPa 0,0 l/m 28,3 km/h (5 Bft) S-SW45 195 3 min 85,8 klux 0 min 587 W/m 6,7 C 31,7 C
06.06.2011 14:09 31,7 C 21 % 1004 hPa 0,0 l/m 26,8 km/h (4 Bft) S45 180 2 min 80,2 klux 0 min 549 W/m 6,7 C 31,7 C
06.06.2011 14:07 31,7 C 21 % 1004 hPa 0,0 l/m 26,8 km/h (4 Bft) S45 180 2 min 74,7 klux 0 min 511 W/m 6,7 C 31,7 C
06.06.2011 14:05 31,8 C 21 % 1004 hPa 0,0 l/m 30,4 km/h (5 Bft) SO67.5 130 2 min 77,1 klux 0 min 527 W/m 6,8 C 31,8 C
06.06.2011 14:03 31,8 C 21 % 1004 hPa 0,0 l/m 22,1 km/h (4 Bft) SO45 140 2 min 77,1 klux 0 min 527 W/m 6,8 C 31,8 C
06.06.2011 14:01 31,8 C 21 % 1004 hPa 0,0 l/m 26,3 km/h (4 Bft) S-SO45 160 0 min 61,9 klux 0 min 423 W/m 6,8 C 31,8 C
06.06.2011 13:59 31,8 C 21 % 1004 hPa 0,0 l/m 26,3 km/h (4 Bft) S-SO45 160 2 min 89,2 klux 0 min 610 W/m 6,8 C 31,8 C
06.06.2011 13:57 31,6 C 21 % 1004 hPa 0,0 l/m 14,8 km/h (3 Bft) S-SO45 155 0 min 89,7 klux 0 min 614 W/m 6,6 C 31,6 C
06.06.2011 13:57 31,6 C 21 % 1004 hPa 0,0 l/m 14,8 km/h (3 Bft) S-SO45 155 2 min 89,7 klux 0 min 614 W/m 6,6 C 31,6 C
06.06.2011 13:55 31,6 C 21 % 1004 hPa 0,0 l/m 23,6 km/h (4 Bft) S45 175 2 min 89,7 klux 0 min 614 W/m 6,6 C 31,6 C
06.06.2011 13:53 31,4 C 22 % 1004 hPa 0,0 l/m 29,4 km/h (5 Bft) S45 170 0 min 26,0 klux 0 min 178 W/m 7,1 C 31,4 C
06.06.2011 13:51 31,5 C 21 % 1004 hPa 0,0 l/m 29,4 km/h (5 Bft) S45 170 2 min 90,6 klux 0 min 620 W/m 6,5 C 31,5 C
06.06.2011 13:49 31,5 C 21 % 1004 hPa 0,0 l/m 23,1 km/h (4 Bft) S-SW67.5 195 2 min 77,7 klux 0 min 531 W/m 6,5 C 31,5 C
06.06.2011 13:47 31,7 C 0 % 1004 hPa 0,0 l/m 23,1 km/h (4 Bft) S-SW67.5 195 2 min 77,7 klux 0 min 531 W/m -60,0 C 31,7 C
06.06.2011 13:45 32,2 C 0 % 1004 hPa 0,0 l/m 23,1 km/h (4 Bft) S-SW67.5 195 0 min 26,1 klux 0 min 179 W/m -60,0 C 32,2 C
06.06.2011 13:43 32,2 C 0 % 1004 hPa 0,0 l/m 20,5 km/h (4 Bft) S45 180 2 min 89,5 klux 0 min 612 W/m -60,0 C 32,2 C
06.06.2011 13:41 32,4 C 0 % 1004 hPa 0,0 l/m 22,9 km/h (4 Bft) S22.5 185 2 min 90,9 klux 0 min 622 W/m -60,0 C 32,4 C
06.06.2011 13:39 32,0 C 21 % 1004 hPa 0,0 l/m 22,9 km/h (4 Bft) S22.5 185 2 min 90,9 klux 0 min 622 W/m 6,9 C 32,0 C
06.06.2011 13:37 32,0 C 21 % 1004 hPa 0,0 l/m 22,9 km/h (4 Bft) S22.5 185 2 min 92,3 klux 0 min 631 W/m 6,9 C 32,0 C
06.06.2011 13:35 32,4 C 21 % 1004 hPa 0,0 l/m 25,4 km/h (4 Bft) S-SO45 165 2 min 93,8 klux 0 min 642 W/m 7,2 C 32,4 C
06.06.2011 13:33 31,9 C 21 % 1004 hPa 0,0 l/m 20,0 km/h (4 Bft) O67.5 100 2 min 95,3 klux 0 min 652 W/m 6,8 C 31,9 C
06.06.2011 13:31 31,9 C 21 % 1004 hPa 0,0 l/m 20,0 km/h (4 Bft) O67.5 100 1 min 95,1 klux 0 min 650 W/m 6,8 C 31,9 C
06.06.2011 13:30 31,7 C 21 % 1004 hPa 0,0 l/m 20,0 km/h (4 Bft) O67.5 100 2 min 95,1 klux 0 min 650 W/m 6,7 C 31,7 C
06.06.2011 13:28 31,8 C 22 % 1004 hPa 0,0 l/m 23,3 km/h (4 Bft) S-SO45 155 2 min 97,5 klux 0 min 667 W/m 7,4 C 31,8 C
06.06.2011 13:26 31,8 C 22 % 1004 hPa 0,0 l/m 14,0 km/h (3 Bft) O67.5 90 3 min 96,1 klux 0 min 657 W/m 7,4 C 31,8 C
06.06.2011 13:23 31,6 C 21 % 1004 hPa 0,0 l/m 14,0 km/h (3 Bft) O67.5 90 0 min 51,4 klux 0 min 352 W/m 6,6 C 31,6 C
06.06.2011 13:21 31,8 C 21 % 1004 hPa 0,0 l/m 12,8 km/h (3 Bft) SO67.5 135 0 min 51,4 klux 0 min 352 W/m 6,8 C 31,8 C
06.06.2011 13:19 31,8 C 21 % 1004 hPa 0,0 l/m 19,2 km/h (3 Bft) O-SO67.5 115 0 min 34,6 klux 0 min 237 W/m 6,8 C 31,8 C
06.06.2011 13:17 31,6 C 22 % 1004 hPa 0,0 l/m 22,4 km/h (4 Bft) SO22.5 145 2 min 94,7 klux 0 min 648 W/m 7,3 C 31,6 C
06.06.2011 13:15 31,2 C 22 % 1004 hPa 0,0 l/m 22,4 km/h (4 Bft) SO22.5 145 2 min 95,1 klux 0 min 650 W/m 6,9 C 31,2 C
06.06.2011 13:13 31,2 C 22 % 1004 hPa 0,0 l/m 21,7 km/h (4 Bft) O-SO45 120 2 min 95,1 klux 0 min 650 W/m 6,9 C 31,2 C
06.06.2011 13:11 30,7 C 23 % 1004 hPa 0,0 l/m 14,6 km/h (3 Bft) O-SO22.5 110 0 min 44,1 klux 0 min 302 W/m 7,2 C 30,7 C
06.06.2011 13:09 30,8 C 23 % 1004 hPa 0,0 l/m 14,6 km/h (3 Bft) O-SO22.5 110 0 min 32,4 klux 0 min 222 W/m 7,3 C 30,8 C
06.06.2011 13:07 30,8 C 23 % 1004 hPa 0,0 l/m 17,0 km/h (3 Bft) S22.5 170 0 min 32,0 klux 0 min 219 W/m 7,3 C 30,8 C
06.06.2011 13:05 30,8 C 24 % 1004 hPa 0,0 l/m 17,2 km/h (3 Bft) S67.5 170 0 min 32,0 klux 0 min 219 W/m 7,9 C 30,8 C
06.06.2011 13:03 30,8 C 24 % 1004 hPa 0,0 l/m 21,0 km/h (4 Bft) S-SO45 155 0 min 28,5 klux 0 min 195 W/m 7,9 C 30,8 C
06.06.2011 13:01 31,0 C 23 % 1004 hPa 0,0 l/m 21,0 km/h (4 Bft) S-SO45 155 0 min 25,3 klux 0 min 173 W/m 7,4 C 31,0 C
06.06.2011 12:59 31,0 C 23 % 1004 hPa 0,0 l/m 18,0 km/h (3 Bft) SO45 145 0 min 25,1 klux 0 min 172 W/m 7,4 C 31,0 C
06.06.2011 12:57 31,1 C 23 % 1004 hPa 0,0 l/m 13,9 km/h (3 Bft) O67.5 95 0 min 25,1 klux 0 min 172 W/m 7,5 C 31,1 C
06.06.2011 12:55 30,8 C 23 % 1004 hPa 0,0 l/m 13,9 km/h (3 Bft) O67.5 95 0 min 44,5 klux 0 min 304 W/m 7,3 C 30,8 C
06.06.2011 12:53 30,8 C 23 % 1004 hPa 0,0 l/m 13,9 km/h (3 Bft) O67.5 95 2 min 84,6 klux 0 min 579 W/m 7,3 C 30,8 C
06.06.2011 12:51 31,0 C 22 % 1004 hPa 0,0 l/m 17,4 km/h (3 Bft) O67.5 95 2 min 92,3 klux 0 min 631 W/m 6,8 C 31,0 C
06.06.2011 12:49 31,0 C 23 % 1004 hPa 0,0 l/m 19,0 km/h (3 Bft) SO45 125 2 min 92,0 klux 0 min 629 W/m 7,4 C 31,0 C
06.06.2011 12:47 31,0 C 23 % 1005 hPa 0,0 l/m 19,0 km/h (3 Bft) SO45 125 2 min 92,0 klux 0 min 629 W/m 7,4 C 31,0 C
06.06.2011 12:45 31,0 C 23 % 1005 hPa 0,0 l/m 15,0 km/h (3 Bft) SO45 130 2 min 77,0 klux 0 min 527 W/m 7,4 C 31,0 C
06.06.2011 12:43 30,8 C 24 % 1005 hPa 0,0 l/m 10,5 km/h (2 Bft) O22.5 100 0 min 48,8 klux 0 min 334 W/m 7,9 C 30,8 C
06.06.2011 12:41 30,8 C 24 % 1005 hPa 0,0 l/m 9,1 km/h (2 Bft) NO22.5 55 2 min 84,3 klux 0 min 577 W/m 7,9 C 30,8 C
06.06.2011 12:39 30,8 C 24 % 1005 hPa 0,0 l/m 9,1 km/h (2 Bft) NO22.5 55 2 min 84,3 klux 0 min 577 W/m 7,9 C 30,8 C
06.06.2011 12:37 30,9 C 24 % 1005 hPa 0,0 l/m 13,8 km/h (3 Bft) O45 85 1 min 70,2 klux 0 min 480 W/m 8,0 C 30,9 C
06.06.2011 12:36 30,9 C 24 % 1005 hPa 0,0 l/m 15,4 km/h (3 Bft) S-SO67.5 165 2 min 87,6 klux 0 min 599 W/m 8,0 C 30,9 C
06.06.2011 12:34 31,0 C 23 % 1005 hPa 0,0 l/m 23,2 km/h (4 Bft) S-SO45 165 2 min 85,9 klux 0 min 588 W/m 7,4 C 31,0 C
06.06.2011 12:32 30,7 C 24 % 1005 hPa 0,0 l/m 23,2 km/h (4 Bft) S-SO45 165 3 min 85,9 klux 0 min 588 W/m 7,8 C 30,7 C
06.06.2011 12:29 30,7 C 24 % 1005 hPa 0,0 l/m 25,3 km/h (4 Bft) S67.5 170 2 min 87,3 klux 0 min 597 W/m 7,8 C 30,7 C
06.06.2011 12:27 30,8 C 24 % 1005 hPa 0,0 l/m 25,3 km/h (4 Bft) S67.5 170 2 min 87,5 klux 0 min 599 W/m 7,9 C 30,8 C
06.06.2011 12:25 30,9 C 24 % 1005 hPa 0,0 l/m 25,3 km/h (4 Bft) S67.5 170 2 min 84,9 klux 0 min 581 W/m 8,0 C 30,9 C
06.06.2011 12:23 30,9 C 24 % 1005 hPa 0,0 l/m 10,8 km/h (2 Bft) W-SW22.5 255 2 min 84,9 klux 0 min 581 W/m 8,0 C 30,9 C
06.06.2011 12:21 31,1 C 23 % 1005 hPa 0,0 l/m 19,0 km/h (3 Bft) S-SW45 210 2 min 83,8 klux 0 min 573 W/m 7,5 C 31,1 C
06.06.2011 12:19 31,2 C 24 % 1005 hPa 0,0 l/m 24,2 km/h (4 Bft) S45 170 2 min 84,5 klux 0 min 578 W/m 8,2 C 31,2 C
06.06.2011 12:17 31,2 C 24 % 1005 hPa 0,0 l/m 24,2 km/h (4 Bft) S45 170 2 min 85,3 klux 0 min 583 W/m 8,2 C 31,2 C
06.06.2011 12:15 30,7 C 25 % 1005 hPa 0,0 l/m 13,6 km/h (3 Bft) SO22.5 135 2 min 85,3 klux 0 min 583 W/m 8,4 C 30,7 C
06.06.2011 12:13 30,6 C 25 % 1005 hPa 0,0 l/m 17,3 km/h (3 Bft) SO45 145 2 min 84,6 klux 0 min 579 W/m 8,3 C 30,6 C
06.06.2011 12:11 30,6 C 25 % 1005 hPa 0,0 l/m 32,0 km/h (5 Bft) S-SO45 150 2 min 83,8 klux 0 min 573 W/m 8,3 C 30,6 C
06.06.2011 12:09 30,7 C 24 % 1005 hPa 0,0 l/m 32,0 km/h (5 Bft) S-SO45 150 2 min 84,1 klux 0 min 575 W/m 7,8 C 30,7 C
06.06.2011 12:07 31,3 C 23 % 1005 hPa 0,0 l/m 22,8 km/h (4 Bft) S45 185 2 min 83,3 klux 0 min 570 W/m 7,7 C 31,3 C
06.06.2011 12:05 31,2 C 23 % 1005 hPa 0,0 l/m 14,5 km/h (3 Bft) S-SW45 200 2 min 83,3 klux 0 min 570 W/m 7,6 C 31,2 C
06.06.2011 12:03 31,2 C 23 % 1005 hPa 0,0 l/m 14,5 km/h (3 Bft) S-SW45 200 2 min 83,0 klux 0 min 568 W/m 7,6 C 31,2 C
06.06.2011 12:01 31,0 C 25 % 1005 hPa 0,0 l/m 17,3 km/h (3 Bft) S-SO45 160 2 min 82,1 klux 0 min 562 W/m 8,6 C 31,0 C
06.06.2011 11:59 30,7 C 26 % 1005 hPa 0,0 l/m 14,0 km/h (3 Bft) O-SO45 115 2 min 81,7 klux 0 min 559 W/m 9,0 C 30,7 C
06.06.2011 11:57 30,7 C 26 % 1005 hPa 0,0 l/m 12,5 km/h (2 Bft) SO45 125 2 min 81,7 klux 0 min 559 W/m 9,0 C 30,7 C
06.06.2011 11:55 30,3 C 25 % 1005 hPa 0,0 l/m 12,5 km/h (2 Bft) SO45 125 2 min 82,4 klux 0 min 564 W/m 8,1 C 30,3 C
06.06.2011 11:53 30,3 C 25 % 1005 hPa 0,0 l/m 20,1 km/h (4 Bft) SO22.5 135 2 min 82,7 klux 0 min 566 W/m 8,1 C 30,3 C
06.06.2011 11:51 30,3 C 25 % 1005 hPa 0,0 l/m 20,5 km/h (4 Bft) S-SO45 160 2 min 79,5 klux 0 min 544 W/m 8,1 C 30,3 C
06.06.2011 11:49 30,5 C 26 % 1005 hPa 0,0 l/m 20,5 km/h (4 Bft) S-SO45 160 2 min 79,5 klux 0 min 544 W/m 8,8 C 30,5 C
06.06.2011 11:47 30,4 C 26 % 1005 hPa 0,0 l/m 20,0 km/h (4 Bft) S-SW67.5 200 2 min 79,1 klux 0 min 541 W/m 8,7 C 30,4 C
06.06.2011 11:45 30,4 C 26 % 1005 hPa 0,0 l/m 16,4 km/h (3 Bft) S-SW45 195 2 min 77,7 klux 0 min 531 W/m 8,7 C 30,4 C
06.06.2011 11:43 30,7 C 27 % 1005 hPa 0,0 l/m 16,0 km/h (3 Bft) S-SO67.5 165 1 min 76,6 klux 0 min 524 W/m 9,5 C 30,7 C
06.06.2011 11:42 30,5 C 27 % 1005 hPa 0,0 l/m 16,0 km/h (3 Bft) S-SO67.5 165 2 min 76,6 klux 0 min 524 W/m 9,4 C 30,5 C
06.06.2011 11:40 30,5 C 27 % 1005 hPa 0,0 l/m 16,6 km/h (3 Bft) S45 170 2 min 78,8 klux 0 min 539 W/m 9,4 C 30,5 C
06.06.2011 11:38 30,6 C 27 % 1005 hPa 0,0 l/m 16,6 km/h (3 Bft) S45 170 2 min 80,6 klux 0 min 551 W/m 9,4 C 30,6 C
06.06.2011 11:36 30,4 C 28 % 1005 hPa 0,0 l/m 11,1 km/h (2 Bft) S-SO45 160 2 min 80,6 klux 0 min 551 W/m 9,8 C 30,4 C
06.06.2011 11:34 30,4 C 28 % 1005 hPa 0,0 l/m 11,1 km/h (2 Bft) S-SO45 160 2 min 80,6 klux 0 min 551 W/m 9,8 C 30,4 C
06.06.2011 11:32 30,1 C 27 % 1005 hPa 0,0 l/m 15,9 km/h (3 Bft) S45 175 3 min 77,7 klux 0 min 531 W/m 9,0 C 30,1 C
06.06.2011 11:29 30,1 C 28 % 1005 hPa 0,0 l/m 19,5 km/h (3 Bft) S67.5 185 2 min 80,0 klux 0 min 547 W/m 9,6 C 30,1 C
06.06.2011 11:27 30,1 C 28 % 1005 hPa 0,0 l/m 19,5 km/h (3 Bft) S67.5 185 2 min 76,4 klux 0 min 523 W/m 9,6 C 30,1 C
06.06.2011 11:25 29,6 C 29 % 1005 hPa 0,0 l/m 26,5 km/h (4 Bft) O-SO67.5 120 2 min 78,4 klux 0 min 536 W/m 9,7 C 29,6 C
06.06.2011 11:23 29,7 C 28 % 1005 hPa 0,0 l/m 12,6 km/h (3 Bft) O67.5 90 2 min 78,4 klux 0 min 536 W/m 9,2 C 29,7 C
06.06.2011 11:21 29,7 C 28 % 1005 hPa 0,0 l/m 11,5 km/h (2 Bft) O-NO22.5 60 2 min 78,1 klux 0 min 534 W/m 9,2 C 29,7 C
06.06.2011 11:19 29,9 C 29 % 1005 hPa 0,0 l/m 11,5 km/h (2 Bft) O-NO22.5 60 2 min 78,4 klux 0 min 536 W/m 9,9 C 29,9 C
06.06.2011 11:17 29,6 C 28 % 1005 hPa 0,0 l/m 14,6 km/h (3 Bft) O-SO67.5 115 2 min 76,2 klux 0 min 521 W/m 9,1 C 29,6 C
06.06.2011 11:15 29,6 C 28 % 1005 hPa 0,0 l/m 21,3 km/h (4 Bft) S-SO45 150 2 min 76,2 klux 0 min 521 W/m 9,1 C 29,6 C
06.06.2011 11:13 30,0 C 27 % 1005 hPa 0,0 l/m 16,5 km/h (3 Bft) SO45 125 2 min 76,0 klux 0 min 520 W/m 8,9 C 30,0 C
06.06.2011 11:11 30,0 C 27 % 1005 hPa 0,0 l/m 16,5 km/h (3 Bft) SO45 125 2 min 78,6 klux 0 min 538 W/m 8,9 C 30,0 C
06.06.2011 11:09 30,0 C 27 % 1005 hPa 0,0 l/m 13,5 km/h (3 Bft) S-SW22.5 195 2 min 79,2 klux 0 min 542 W/m 8,9 C 30,0 C
06.06.2011 11:07 29,8 C 29 % 1005 hPa 0,0 l/m 15,8 km/h (3 Bft) S-SW45 195 2 min 79,2 klux 0 min 542 W/m 9,8 C 29,8 C
06.06.2011 11:05 30,1 C 29 % 1005 hPa 0,0 l/m 15,8 km/h (3 Bft) S-SW45 195 2 min 79,1 klux 0 min 541 W/m 10,1 C 30,1 C
06.06.2011 11:03 29,7 C 29 % 1005 hPa 0,0 l/m 12,6 km/h (3 Bft) S45 180 2 min 77,2 klux 0 min 528 W/m 9,7 C 29,7 C
06.06.2011 11:01 29,7 C 29 % 1005 hPa 0,0 l/m 12,8 km/h (3 Bft) S-SW45 205 1 min 76,4 klux 0 min 523 W/m 9,7 C 29,7 C
06.06.2011 11:00 29,5 C 29 % 1005 hPa 0,0 l/m 17,8 km/h (3 Bft) S45 185 2 min 76,4 klux 0 min 523 W/m 9,6 C 29,5 C
06.06.2011 10:58 29,8 C 29 % 1005 hPa 0,0 l/m 17,8 km/h (3 Bft) S45 185 2 min 72,1 klux 0 min 493 W/m 9,8 C 29,8 C
06.06.2011 10:56 29,8 C 29 % 1005 hPa 0,0 l/m 19,1 km/h (3 Bft) S45 185 2 min 73,5 klux 0 min 503 W/m 9,8 C 29,8 C
06.06.2011 10:54 29,7 C 29 % 1005 hPa 0,0 l/m 18,2 km/h (3 Bft) S-SO67.5 150 2 min 70,6 klux 0 min 483 W/m 9,7 C 29,7 C
06.06.2011 10:52 29,5 C 28 % 1005 hPa 0,0 l/m 16,4 km/h (3 Bft) S-SO45 160 3 min 70,6 klux 0 min 483 W/m 9,1 C 29,5 C
06.06.2011 10:49 29,5 C 28 % 1005 hPa 0,0 l/m 16,4 km/h (3 Bft) S-SO45 160 2 min 65,9 klux 0 min 451 W/m 9,1 C 29,5 C
06.06.2011 10:47 29,6 C 29 % 1005 hPa 0,0 l/m 16,4 km/h (3 Bft) S-SO45 160 2 min 68,8 klux 0 min 471 W/m 9,7 C 29,6 C
06.06.2011 10:45 29,6 C 30 % 1005 hPa 0,0 l/m 12,8 km/h (3 Bft) S45 180 2 min 73,0 klux 0 min 499 W/m 10,2 C 29,6 C
06.06.2011 10:43 29,6 C 30 % 1005 hPa 0,0 l/m 12,8 km/h (3 Bft) S45 180 2 min 74,5 klux 0 min 510 W/m 10,2 C 29,6 C
06.06.2011 10:41 29,8 C 30 % 1005 hPa 0,0 l/m 13,7 km/h (3 Bft) S-SW45 200 2 min 74,5 klux 0 min 510 W/m 10,3 C 29,8 C
06.06.2011 10:39 29,8 C 30 % 1005 hPa 0,0 l/m 16,9 km/h (3 Bft) S-SW45 200 2 min 73,8 klux 0 min 505 W/m 10,3 C 29,8 C
06.06.2011 10:37 29,8 C 30 % 1005 hPa 0,0 l/m 9,2 km/h (2 Bft) S-SW45 205 2 min 72,2 klux 0 min 494 W/m 10,3 C 29,8 C
06.06.2011 10:35 29,6 C 30 % 1005 hPa 0,0 l/m 9,2 km/h (2 Bft) S-SW45 205 2 min 72,2 klux 0 min 494 W/m 10,2 C 29,6 C
06.06.2011 10:33 29,4 C 31 % 1005 hPa 0,0 l/m 14,6 km/h (3 Bft) S67.5 185 2 min 72,2 klux 0 min 494 W/m 10,5 C 29,4 C
06.06.2011 10:31 29,4 C 31 % 1005 hPa 0,0 l/m 11,1 km/h (2 Bft) S-SO67.5 150 1 min 71,8 klux 0 min 491 W/m 10,5 C 29,4 C
06.06.2011 10:30 29,4 C 30 % 1005 hPa 0,0 l/m 11,1 km/h (2 Bft) S-SO67.5 150 2 min 71,4 klux 0 min 488 W/m 10,0 C 29,4 C
06.06.2011 10:28 29,3 C 30 % 1005 hPa 0,0 l/m 13,2 km/h (3 Bft) SO67.5 145 2 min 72,6 klux 0 min 497 W/m 9,9 C 29,3 C
06.06.2011 10:26 29,3 C 30 % 1005 hPa 0,0 l/m 13,9 km/h (3 Bft) S-SO45 150 2 min 72,6 klux 0 min 497 W/m 9,9 C 29,3 C
06.06.2011 10:24 29,3 C 30 % 1005 hPa 0,0 l/m 17,0 km/h (3 Bft) S45 175 2 min 72,1 klux 0 min 493 W/m 9,9 C 29,3 C
06.06.2011 10:22 29,3 C 31 % 1005 hPa 0,0 l/m 17,0 km/h (3 Bft) S45 175 2 min 71,2 klux 0 min 487 W/m 10,4 C 29,3 C
06.06.2011 10:20 29,3 C 31 % 1005 hPa 0,0 l/m 17,0 km/h (3 Bft) S-SW45 205 2 min 70,7 klux 0 min 484 W/m 10,4 C 29,3 C
06.06.2011 10:18 29,2 C 31 % 1005 hPa 0,0 l/m 17,8 km/h (3 Bft) SO67.5 130 3 min 70,7 klux 0 min 484 W/m 10,3 C 29,2 C
06.06.2011 10:15 28,9 C 31 % 1005 hPa 0,0 l/m 19,3 km/h (3 Bft) SO45 125 2 min 70,8 klux 0 min 484 W/m 10,1 C 28,9 C
06.06.2011 10:13 28,9 C 31 % 1005 hPa 0,0 l/m 19,3 km/h (3 Bft) SO45 125 2 min 70,8 klux 0 min 484 W/m 10,1 C 28,9 C
06.06.2011 10:11 29,1 C 31 % 1005 hPa 0,0 l/m 20,1 km/h (4 Bft) SO45 140 2 min 70,6 klux 0 min 483 W/m 10,2 C 29,1 C
06.06.2011 10:09 29,0 C 31 % 1005 hPa 0,0 l/m 15,0 km/h (3 Bft) O-SO45 105 2 min 70,6 klux 0 min 483 W/m 10,1 C 29,0 C
06.06.2011 10:07 29,1 C 31 % 1005 hPa 0,0 l/m 15,0 km/h (3 Bft) O-SO45 105 2 min 69,8 klux 0 min 477 W/m 10,2 C 29,1 C
06.06.2011 10:05 29,1 C 31 % 1005 hPa 0,0 l/m 18,3 km/h (3 Bft) SO45 140 2 min 69,0 klux 0 min 472 W/m 10,2 C 29,1 C
06.06.2011 10:03 29,0 C 31 % 1005 hPa 0,0 l/m 20,1 km/h (4 Bft) S-SO45 155 1 min 68,5 klux 0 min 469 W/m 10,1 C 29,0 C
06.06.2011 10:02 28,8 C 32 % 1005 hPa 0,0 l/m 12,7 km/h (3 Bft) SO45 145 3 min 68,2 klux 0 min 466 W/m 10,4 C 28,8 C
06.06.2011 09:59 28,8 C 32 % 1005 hPa 0,0 l/m 12,7 km/h (3 Bft) SO45 145 2 min 68,2 klux 0 min 466 W/m 10,4 C 28,8 C
06.06.2011 09:57 28,7 C 31 % 1005 hPa 0,0 l/m 19,0 km/h (3 Bft) SO45 135 2 min 67,6 klux 0 min 462 W/m 9,9 C 28,7 C
06.06.2011 09:55 28,9 C 31 % 1005 hPa 0,0 l/m 19,0 km/h (3 Bft) SO45 135 2 min 67,2 klux 0 min 460 W/m 10,1 C 28,9 C
06.06.2011 09:53 28,9 C 31 % 1005 hPa 0,0 l/m 16,0 km/h (3 Bft) SO45 140 2 min 67,4 klux 0 min 461 W/m 10,1 C 28,9 C
06.06.2011 09:51 29,0 C 30 % 1005 hPa 0,0 l/m 16,0 km/h (3 Bft) SO45 140 2 min 67,4 klux 0 min 461 W/m 9,6 C 29,0 C
06.06.2011 09:49 29,4 C 28 % 1005 hPa 0,0 l/m 15,5 km/h (3 Bft) S-SO45 150 2 min 66,7 klux 0 min 456 W/m 9,0 C 29,4 C
06.06.2011 09:47 29,4 C 28 % 1005 hPa 0,0 l/m 16,2 km/h (3 Bft) SO45 125 2 min 66,2 klux 0 min 453 W/m 9,0 C 29,4 C
06.06.2011 09:45 29,8 C 28 % 1005 hPa 0,0 l/m 16,2 km/h (3 Bft) SO45 125 1 min 65,3 klux 0 min 447 W/m 9,3 C 29,8 C
06.06.2011 09:44 29,5 C 28 % 1005 hPa 0,0 l/m 15,3 km/h (3 Bft) S67.5 190 2 min 65,3 klux 0 min 447 W/m 9,1 C 29,5 C
06.06.2011 09:42 29,5 C 28 % 1005 hPa 0,0 l/m 18,8 km/h (3 Bft) S45 185 2 min 64,6 klux 0 min 442 W/m 9,1 C 29,5 C
06.06.2011 09:40 29,8 C 27 % 1005 hPa 0,0 l/m 22,8 km/h (4 Bft) S67.5 175 2 min 64,1 klux 0 min 438 W/m 8,8 C 29,8 C
06.06.2011 09:38 29,9 C 27 % 1005 hPa 0,0 l/m 22,8 km/h (4 Bft) S67.5 175 2 min 64,0 klux 0 min 438 W/m 8,9 C 29,9 C
06.06.2011 09:36 29,9 C 27 % 1005 hPa 0,0 l/m 13,1 km/h (3 Bft) S-SO67.5 155 2 min 64,0 klux 0 min 438 W/m 8,9 C 29,9 C
06.06.2011 09:34 29,7 C 27 % 1005 hPa 0,0 l/m 23,4 km/h (4 Bft) S-SW22.5 205 3 min 63,3 klux 0 min 433 W/m 8,7 C 29,7 C
06.06.2011 09:31 29,8 C 27 % 1005 hPa 0,0 l/m 16,0 km/h (3 Bft) S-SO45 165 2 min 62,8 klux 0 min 430 W/m 8,8 C 29,8 C
06.06.2011 09:29 29,8 C 27 % 1005 hPa 0,0 l/m 16,0 km/h (3 Bft) S-SO45 165 2 min 62,3 klux 0 min 426 W/m 8,8 C 29,8 C
06.06.2011 09:27 29,7 C 27 % 1005 hPa 0,0 l/m 16,0 km/h (3 Bft) S-SO45 165 2 min 62,3 klux 0 min 426 W/m 8,7 C 29,7 C
06.06.2011 09:25 29,6 C 27 % 1005 hPa 0,0 l/m 16,8 km/h (3 Bft) S22.5 185 2 min 61,6 klux 0 min 421 W/m 8,6 C 29,6 C
06.06.2011 09:23 29,6 C 27 % 1005 hPa 0,0 l/m 16,8 km/h (3 Bft) S22.5 185 2 min 61,1 klux 0 min 418 W/m 8,6 C 29,6 C
06.06.2011 09:21 29,7 C 28 % 1005 hPa 0,0 l/m 16,8 km/h (3 Bft) S22.5 185 2 min 60,7 klux 0 min 415 W/m 9,2 C 29,7 C
06.06.2011 09:19 29,3 C 28 % 1005 hPa 0,0 l/m 20,3 km/h (4 Bft) S45 180 2 min 60,6 klux 0 min 415 W/m 8,9 C 29,3 C
06.06.2011 09:17 29,3 C 28 % 1005 hPa 0,0 l/m 28,5 km/h (5 Bft) S67.5 170 2 min 60,6 klux 0 min 415 W/m 8,9 C 29,3 C
06.06.2011 09:15 29,3 C 28 % 1005 hPa 0,0 l/m 28,5 km/h (5 Bft) S67.5 170 1 min 59,4 klux 0 min 406 W/m 8,9 C 29,3 C
06.06.2011 09:14 29,4 C 28 % 1005 hPa 0,0 l/m 25,0 km/h (4 Bft) S45 190 2 min 58,9 klux 0 min 403 W/m 9,0 C 29,4 C
06.06.2011 09:12 29,4 C 28 % 1005 hPa 0,0 l/m 20,8 km/h (4 Bft) S45 185 2 min 57,6 klux 0 min 394 W/m 9,0 C 29,4 C
06.06.2011 09:10 29,3 C 28 % 1005 hPa 0,0 l/m 20,8 km/h (4 Bft) S45 185 2 min 57,6 klux 0 min 394 W/m 8,9 C 29,3 C
06.06.2011 09:08 29,4 C 28 % 1005 hPa 0,0 l/m 21,5 km/h (4 Bft) S22.5 185 2 min 57,6 klux 0 min 394 W/m 9,0 C 29,4 C
06.06.2011 09:06 29,3 C 28 % 1005 hPa 0,0 l/m 15,7 km/h (3 Bft) S-SW45 195 2 min 57,2 klux 0 min 391 W/m 8,9 C 29,3 C
06.06.2011 09:04 29,3 C 28 % 1005 hPa 0,0 l/m 20,1 km/h (4 Bft) S67.5 170 3 min 56,9 klux 0 min 389 W/m 8,9 C 29,3 C
06.06.2011 09:01 29,3 C 28 % 1005 hPa 0,0 l/m 20,1 km/h (4 Bft) S67.5 170 1 min 56,9 klux 0 min 389 W/m 8,9 C 29,3 C
06.06.2011 09:00 29,3 C 28 % 1005 hPa 0,0 l/m 21,7 km/h (4 Bft) S45 185 2 min 56,1 klux 0 min 384 W/m 8,9 C 29,3 C
06.06.2011 08:58 29,3 C 28 % 1005 hPa 0,0 l/m 20,5 km/h (4 Bft) S-SO45 155 3 min 56,0 klux 0 min 383 W/m 8,9 C 29,3 C
06.06.2011 08:55 29,3 C 28 % 1005 hPa 0,0 l/m 19,1 km/h (3 Bft) SO45 145 2 min 55,4 klux 0 min 379 W/m 8,9 C 29,3 C
06.06.2011 08:53 29,1 C 28 % 1005 hPa 0,0 l/m 19,1 km/h (3 Bft) SO45 145 2 min 55,4 klux 0 min 379 W/m 8,7 C 29,1 C
06.06.2011 08:51 29,1 C 28 % 1005 hPa 0,0 l/m 22,4 km/h (4 Bft) S-SO45 165 2 min 54,6 klux 0 min 373 W/m 8,7 C 29,1 C
06.06.2011 08:49 28,8 C 28 % 1005 hPa 0,0 l/m 19,1 km/h (3 Bft) S45 185 2 min 54,2 klux 0 min 371 W/m 8,5 C 28,8 C
06.06.2011 08:47 29,0 C 29 % 1005 hPa 0,0 l/m 19,1 km/h (3 Bft) S45 185 2 min 53,6 klux 0 min 367 W/m 9,1 C 29,0 C
06.06.2011 08:45 29,0 C 29 % 1005 hPa 0,0 l/m 22,1 km/h (4 Bft) S45 170 2 min 53,6 klux 0 min 367 W/m 9,1 C 29,0 C
06.06.2011 08:43 29,1 C 29 % 1005 hPa 0,0 l/m 23,0 km/h (4 Bft) S-SO22.5 155 2 min 53,1 klux 0 min 363 W/m 9,2 C 29,1 C
06.06.2011 08:41 28,6 C 29 % 1005 hPa 0,0 l/m 19,2 km/h (3 Bft) S-SO22.5 160 2 min 52,0 klux 0 min 356 W/m 8,8 C 28,6 C
06.06.2011 08:39 28,6 C 29 % 1005 hPa 0,0 l/m 19,2 km/h (3 Bft) S-SO22.5 160 2 min 51,8 klux 0 min 354 W/m 8,8 C 28,6 C
06.06.2011 08:37 28,7 C 29 % 1005 hPa 0,0 l/m 22,3 km/h (4 Bft) S45 170 2 min 51,4 klux 0 min 352 W/m 8,9 C 28,7 C
06.06.2011 08:35 29,1 C 29 % 1005 hPa 0,0 l/m 16,2 km/h (3 Bft) S-SO22.5 165 2 min 51,4 klux 0 min 352 W/m 9,2 C 29,1 C
06.06.2011 08:33 29,1 C 29 % 1005 hPa 0,0 l/m 19,3 km/h (3 Bft) S45 170 2 min 50,9 klux 0 min 348 W/m 9,2 C 29,1 C
06.06.2011 08:31 28,7 C 30 % 1005 hPa 0,0 l/m 19,3 km/h (3 Bft) S45 170 1 min 49,8 klux 0 min 341 W/m 9,4 C 28,7 C
06.06.2011 08:30 28,5 C 30 % 1005 hPa 0,0 l/m 22,3 km/h (4 Bft) S-SO45 165 2 min 49,2 klux 0 min 337 W/m 9,2 C 28,5 C
06.06.2011 08:28 28,5 C 30 % 1005 hPa 0,0 l/m 16,7 km/h (3 Bft) S-SO45 155 2 min 49,2 klux 0 min 337 W/m 9,2 C 28,5 C
06.06.2011 08:26 28,7 C 30 % 1005 hPa 0,0 l/m 16,7 km/h (3 Bft) S-SO45 155 3 min 48,6 klux 0 min 332 W/m 9,4 C 28,7 C
06.06.2011 08:23 28,4 C 30 % 1005 hPa 0,0 l/m 23,7 km/h (4 Bft) S45 180 2 min 47,8 klux 0 min 327 W/m 9,1 C 28,4 C
06.06.2011 08:21 28,4 C 30 % 1005 hPa 0,0 l/m 14,7 km/h (3 Bft) S-SO45 155 2 min 47,0 klux 0 min 321 W/m 9,1 C 28,4 C
06.06.2011 08:19 28,8 C 30 % 1005 hPa 0,0 l/m 18,3 km/h (3 Bft) S22.5 175 2 min 47,0 klux 0 min 321 W/m 9,5 C 28,8 C
06.06.2011 08:17 29,0 C 30 % 1005 hPa 0,0 l/m 18,3 km/h (3 Bft) S22.5 175 2 min 47,0 klux 0 min 321 W/m 9,6 C 29,0 C
06.06.2011 08:15 29,0 C 30 % 1005 hPa 0,0 l/m 16,6 km/h (3 Bft) S-SO67.5 155 2 min 46,4 klux 0 min 317 W/m 9,6 C 29,0 C
06.06.2011 08:13 28,7 C 30 % 1005 hPa 0,0 l/m 16,5 km/h (3 Bft) S-SO22.5 165 2 min 45,7 klux 0 min 313 W/m 9,4 C 28,7 C
06.06.2011 08:11 28,3 C 30 % 1005 hPa 0,0 l/m 13,8 km/h (3 Bft) S-SO45 160 2 min 45,7 klux 0 min 313 W/m 9,0 C 28,3 C
06.06.2011 08:09 27,9 C 31 % 1005 hPa 0,0 l/m 13,8 km/h (3 Bft) S-SO45 160 2 min 44,6 klux 0 min 305 W/m 9,2 C 27,9 C
06.06.2011 08:07 27,9 C 31 % 1005 hPa 0,0 l/m 22,1 km/h (4 Bft) S45 175 2 min 44,2 klux 0 min 302 W/m 9,2 C 27,9 C
06.06.2011 08:05 27,9 C 31 % 1005 hPa 0,0 l/m 22,1 km/h (4 Bft) S45 175 2 min 43,8 klux 0 min 300 W/m 9,2 C 27,9 C
06.06.2011 08:03 28,1 C 31 % 1005 hPa 0,0 l/m 22,1 km/h (4 Bft) S45 175 2 min 43,8 klux 0 min 300 W/m 9,4 C 28,1 C
06.06.2011 08:01 28,1 C 31 % 1005 hPa 0,0 l/m 20,5 km/h (4 Bft) S45 185 2 min 42,9 klux 0 min 293 W/m 9,4 C 28,1 C
06.06.2011 07:59 27,9 C 32 % 1005 hPa 0,0 l/m 22,6 km/h (4 Bft) S45 185 2 min 41,5 klux 0 min 284 W/m 9,7 C 27,9 C
06.06.2011 07:57 27,9 C 32 % 1005 hPa 0,0 l/m 19,8 km/h (3 Bft) S45 175 2 min 41,5 klux 0 min 284 W/m 9,7 C 27,9 C
06.06.2011 07:55 27,9 C 32 % 1005 hPa 0,0 l/m 19,8 km/h (3 Bft) S45 175 2 min 40,7 klux 0 min 278 W/m 9,7 C 27,9 C
06.06.2011 07:53 27,6 C 32 % 1005 hPa 0,0 l/m 20,8 km/h (4 Bft) S45 180 2 min 40,7 klux 0 min 278 W/m 9,4 C 27,6 C
06.06.2011 07:51 27,6 C 33 % 1005 hPa 0,0 l/m 13,6 km/h (3 Bft) S67.5 170 2 min 40,5 klux 0 min 277 W/m 9,9 C 27,6 C
06.06.2011 07:49 27,6 C 33 % 1005 hPa 0,0 l/m 14,2 km/h (3 Bft) S-SO67.5 160 2 min 39,9 klux 0 min 273 W/m 9,9 C 27,6 C
06.06.2011 07:47 27,5 C 34 % 1005 hPa 0,0 l/m 14,2 km/h (3 Bft) S-SO67.5 160 2 min 39,2 klux 0 min 268 W/m 10,2 C 27,5 C
06.06.2011 07:45 27,1 C 34 % 1005 hPa 0,0 l/m 20,9 km/h (4 Bft) S45 170 2 min 39,2 klux 0 min 268 W/m 9,9 C 27,1 C
06.06.2011 07:43 27,1 C 34 % 1005 hPa 0,0 l/m 23,9 km/h (4 Bft) S45 170 2 min 37,1 klux 0 min 254 W/m 9,9 C 27,1 C
06.06.2011 07:41 27,1 C 34 % 1005 hPa 0,0 l/m 23,9 km/h (4 Bft) S45 170 2 min 36,9 klux 0 min 252 W/m 9,9 C 27,1 C
06.06.2011 07:39 27,1 C 34 % 1005 hPa 0,0 l/m 17,7 km/h (3 Bft) S45 185 2 min 36,1 klux 0 min 247 W/m 9,9 C 27,1 C
06.06.2011 07:37 27,1 C 34 % 1005 hPa 0,0 l/m 18,7 km/h (3 Bft) S45 180 2 min 36,1 klux 0 min 247 W/m 9,9 C 27,1 C
06.06.2011 07:35 27,2 C 34 % 1005 hPa 0,0 l/m 19,5 km/h (3 Bft) S45 180 2 min 35,7 klux 0 min 244 W/m 10,0 C 27,2 C
06.06.2011 07:33 27,1 C 34 % 1005 hPa 0,0 l/m 19,5 km/h (3 Bft) S45 180 -1 min 35,2 klux 0 min 241 W/m 9,9 C 27,1 C
06.06.2011 07:34 27,1 C 34 % 1005 hPa 0,0 l/m 19,5 km/h (3 Bft) S45 180 3 min 35,2 klux 0 min 241 W/m 9,9 C 27,1 C
06.06.2011 07:31 27,1 C 34 % 1005 hPa 0,0 l/m 23,5 km/h (4 Bft) S45 185 2 min 34,8 klux 0 min 238 W/m 9,9 C 27,1 C
06.06.2011 07:29 27,0 C 35 % 1005 hPa 0,0 l/m 19,5 km/h (3 Bft) S45 170 2 min 34,8 klux 0 min 238 W/m 10,2 C 27,0 C
06.06.2011 07:27 26,6 C 36 % 1006 hPa 0,0 l/m 19,5 km/h (3 Bft) S45 170 2 min 32,0 klux 0 min 219 W/m 10,3 C 26,6 C
06.06.2011 07:25 26,6 C 36 % 1006 hPa 0,0 l/m 25,2 km/h (4 Bft) S-SW45 195 2 min 30,1 klux 0 min 206 W/m 10,3 C 26,6 C
06.06.2011 07:23 25,8 C 38 % 1006 hPa 0,0 l/m 16,6 km/h (3 Bft) S-SO45 165 0 min 17,7 klux 0 min 121 W/m 10,4 C 25,8 C
06.06.2011 07:22 26,6 C 36 % 1006 hPa 0,0 l/m 19,8 km/h (3 Bft) S67.5 190 0 min 17,7 klux 0 min 121 W/m 10,3 C 26,6 C
06.06.2011 07:20 26,6 C 36 % 1006 hPa 0,0 l/m 19,8 km/h (3 Bft) S67.5 190 0 min 23,1 klux 0 min 158 W/m 10,3 C 26,6 C
06.06.2011 07:17 27,6 C 35 % 1006 hPa 0,0 l/m 16,5 km/h (3 Bft) S45 190 2 min 26,9 klux 0 min 184 W/m 10,7 C 27,6 C
06.06.2011 07:15 27,6 C 35 % 1006 hPa 0,0 l/m 16,3 km/h (3 Bft) S45 190 2 min 28,9 klux 0 min 198 W/m 10,7 C 27,6 C
06.06.2011 07:13 27,6 C 35 % 1006 hPa 0,0 l/m 14,3 km/h (3 Bft) S45 190 2 min 31,6 klux 0 min 216 W/m 10,7 C 27,6 C
06.06.2011 07:11 26,7 C 35 % 1006 hPa 0,0 l/m 14,3 km/h (3 Bft) S45 190 2 min 31,6 klux 0 min 216 W/m 10,0 C 26,7 C
06.06.2011 07:09 26,6 C 36 % 1006 hPa 0,0 l/m 15,1 km/h (3 Bft) S45 180 2 min 31,5 klux 0 min 215 W/m 10,3 C 26,6 C
06.06.2011 07:07 26,4 C 36 % 1006 hPa 0,0 l/m 15,8 km/h (3 Bft) S-SO45 160 1 min 30,9 klux 0 min 211 W/m 10,1 C 26,4 C
06.06.2011 07:06 26,4 C 36 % 1006 hPa 0,0 l/m 15,8 km/h (3 Bft) S-SO45 160 2 min 28,9 klux 0 min 198 W/m 10,1 C 26,4 C
06.06.2011 07:04 26,4 C 37 % 1006 hPa 0,0 l/m 15,3 km/h (3 Bft) S67.5 175 2 min 28,9 klux 0 min 198 W/m 10,5 C 26,4 C
06.06.2011 07:02 26,4 C 37 % 1006 hPa 0,0 l/m 13,5 km/h (3 Bft) S67.5 170 3 min 27,7 klux 0 min 189 W/m 10,5 C 26,4 C
06.06.2011 06:59 26,4 C 37 % 1006 hPa 0,0 l/m 16,0 km/h (3 Bft) S67.5 170 2 min 26,7 klux 0 min 183 W/m 10,5 C 26,4 C
06.06.2011 06:57 26,1 C 38 % 1006 hPa 0,0 l/m 16,0 km/h (3 Bft) S67.5 170 2 min 25,8 klux 0 min 176 W/m 10,7 C 26,1 C
06.06.2011 06:55 25,9 C 39 % 1006 hPa 0,0 l/m 12,5 km/h (2 Bft) S-SO45 160 1 min 25,8 klux 0 min 176 W/m 10,9 C 25,9 C
06.06.2011 06:54 25,9 C 39 % 1006 hPa 0,0 l/m 16,1 km/h (3 Bft) SO45 145 2 min 24,8 klux 0 min 170 W/m 10,9 C 25,9 C
06.06.2011 06:52 25,6 C 40 % 1006 hPa 0,0 l/m 14,2 km/h (3 Bft) S-SO45 150 2 min 24,0 klux 0 min 164 W/m 11,0 C 25,6 C
06.06.2011 06:50 25,1 C 41 % 1006 hPa 0,0 l/m 14,2 km/h (3 Bft) S-SO45 150 0 min 20,7 klux 0 min 142 W/m 10,9 C 25,1 C
06.06.2011 06:48 25,1 C 41 % 1006 hPa 0,0 l/m 12,6 km/h (3 Bft) S-SO45 165 0 min 20,7 klux 0 min 142 W/m 10,9 C 25,1 C
06.06.2011 06:45 25,3 C 41 % 1006 hPa 0,0 l/m 11,5 km/h (2 Bft) S45 170 0 min 19,3 klux 0 min 132 W/m 11,1 C 25,3 C
06.06.2011 06:43 25,2 C 42 % 1006 hPa 0,0 l/m 11,5 km/h (2 Bft) S45 170 2 min 20,7 klux 0 min 142 W/m 11,4 C 25,2 C
06.06.2011 06:41 25,2 C 42 % 1006 hPa 0,0 l/m 11,5 km/h (2 Bft) S-SO22.5 160 -1 min 20,4 klux 0 min 140 W/m 11,4 C 25,2 C
06.06.2011 06:42 25,2 C 42 % 1006 hPa 0,0 l/m 11,5 km/h (2 Bft) S-SO22.5 160 2 min 20,4 klux 0 min 140 W/m 11,4 C 25,2 C
06.06.2011 06:40 24,7 C 44 % 1005 hPa 0,0 l/m 10,3 km/h (2 Bft) S-SO45 165 2 min 20,4 klux 0 min 140 W/m 11,6 C 24,7 C
06.06.2011 06:38 24,1 C 46 % 1005 hPa 0,0 l/m 12,0 km/h (2 Bft) S-SO22.5 160 3 min 19,4 klux 0 min 133 W/m 11,7 C 24,1 C
06.06.2011 06:35 24,1 C 46 % 1005 hPa 0,0 l/m 12,0 km/h (2 Bft) S-SO22.5 160 0 min 15,3 klux 0 min 105 W/m 11,7 C 24,1 C
06.06.2011 06:33 23,8 C 48 % 1005 hPa 0,0 l/m 6,5 km/h (2 Bft) SO22.5 130 0 min 8,17 klux 0 min 56 W/m 12,1 C 23,8 C
06.06.2011 06:31 23,9 C 47 % 1005 hPa 0,0 l/m 9,2 km/h (2 Bft) SO22.5 135 0 min 7,98 klux 0 min 55 W/m 11,9 C 23,9 C
06.06.2011 06:29 23,9 C 47 % 1005 hPa 0,0 l/m 10,8 km/h (2 Bft) SO22.5 135 0 min 7,98 klux 0 min 55 W/m 11,9 C 23,9 C
06.06.2011 06:27 23,8 C 47 % 1005 hPa 0,0 l/m 10,8 km/h (2 Bft) SO22.5 135 0 min 8,14 klux 0 min 56 W/m 11,8 C 23,8 C
06.06.2011 06:25 24,1 C 45 % 1005 hPa 0,0 l/m 11,6 km/h (2 Bft) SO45 125 0 min 8,11 klux 0 min 55 W/m 11,4 C 24,1 C
06.06.2011 06:23 24,1 C 45 % 1005 hPa 0,0 l/m 10,3 km/h (2 Bft) SO45 130 0 min 8,06 klux 0 min 55 W/m 11,4 C 24,1 C
06.06.2011 06:21 24,2 C 44 % 1005 hPa 0,0 l/m 10,3 km/h (2 Bft) SO45 130 0 min 8,06 klux 0 min 55 W/m 11,2 C 24,2 C
06.06.2011 06:19 24,3 C 43 % 1005 hPa 0,0 l/m 12,0 km/h (2 Bft) SO22.5 125 0 min 8,28 klux 0 min 57 W/m 10,9 C 24,3 C
06.06.2011 06:17 24,3 C 43 % 1005 hPa 0,0 l/m 11,5 km/h (2 Bft) O-SO45 115 0 min 10,6 klux 0 min 73 W/m 10,9 C 24,3 C
06.06.2011 06:15 24,5 C 43 % 1005 hPa 0,0 l/m 8,4 km/h (2 Bft) O-SO22.5 115 0 min 11,1 klux 0 min 76 W/m 11,1 C 24,5 C
06.06.2011 06:13 24,6 C 43 % 1005 hPa 0,0 l/m 8,4 km/h (2 Bft) O-SO22.5 115 0 min 11,1 klux 0 min 76 W/m 11,2 C 24,6 C
06.06.2011 06:12 24,7 C 43 % 1005 hPa 0,0 l/m 8,4 km/h (2 Bft) O-SO22.5 115 0 min 12,6 klux 0 min 86 W/m 11,3 C 24,7 C
06.06.2011 06:10 24,7 C 43 % 1005 hPa 0,0 l/m 9,4 km/h (2 Bft) SO45 135 2 min 13,7 klux 0 min 94 W/m 11,3 C 24,7 C
06.06.2011 06:08 24,6 C 43 % 1005 hPa 0,0 l/m 9,4 km/h (2 Bft) SO45 135 0 min 11,4 klux 0 min 78 W/m 11,2 C 24,6 C
06.06.2011 06:06 24,6 C 43 % 1005 hPa 0,0 l/m 10,3 km/h (2 Bft) SO45 140 0 min 11,4 klux 0 min 78 W/m 11,2 C 24,6 C
06.06.2011 06:04 24,6 C 43 % 1005 hPa 0,0 l/m 10,1 km/h (2 Bft) O-SO45 120 3 min 13,7 klux 0 min 94 W/m 11,2 C 24,6 C
06.06.2011 06:01 24,5 C 45 % 1005 hPa 0,0 l/m 13,0 km/h (3 Bft) SO22.5 135 1 min 13,0 klux 0 min 89 W/m 11,8 C 24,5 C
06.06.2011 06:00 24,5 C 45 % 1005 hPa 0,0 l/m 13,0 km/h (3 Bft) SO22.5 135 2 min 13,0 klux 0 min 89 W/m 11,8 C 24,5 C
06.06.2011 05:58 24,5 C 45 % 1005 hPa 0,0 l/m 13,8 km/h (3 Bft) SO45 130 2 min 13,0 klux 0 min 89 W/m 11,8 C 24,5 C
06.06.2011 05:56 24,2 C 44 % 1005 hPa 0,0 l/m 11,6 km/h (2 Bft) SO45 135 2 min 12,6 klux 0 min 86 W/m 11,2 C 24,2 C
06.06.2011 05:54 24,3 C 45 % 1005 hPa 0,0 l/m 10,6 km/h (2 Bft) SO22.5 135 2 min 11,9 klux 0 min 81 W/m 11,6 C 24,3 C
06.06.2011 05:52 24,3 C 45 % 1005 hPa 0,0 l/m 10,6 km/h (2 Bft) SO22.5 135 2 min 11,2 klux 0 min 77 W/m 11,6 C 24,3 C
06.06.2011 05:50 23,8 C 47 % 1005 hPa 0,0 l/m 11,7 km/h (2 Bft) SO45 130 2 min 10,4 klux 0 min 71 W/m 11,8 C 23,8 C
06.06.2011 05:48 23,8 C 47 % 1005 hPa 0,0 l/m 11,0 km/h (2 Bft) SO22.5 135 3 min 10,4 klux 0 min 71 W/m 11,8 C 23,8 C
06.06.2011 05:45 23,8 C 47 % 1005 hPa 0,0 l/m 11,0 km/h (2 Bft) SO22.5 135 2 min 9,8 klux 0 min 67 W/m 11,8 C 23,8 C
06.06.2011 05:43 23,6 C 49 % 1005 hPa 0,0 l/m 8,5 km/h (2 Bft) SO45 125 2 min 8,80 klux 0 min 60 W/m 12,2 C 23,6 C
06.06.2011 05:41 23,5 C 49 % 1005 hPa 0,0 l/m 10,6 km/h (2 Bft) SO45 135 0 min 7,45 klux 0 min 51 W/m 12,2 C 23,5 C
06.06.2011 05:39 23,5 C 49 % 1005 hPa 0,0 l/m 11,1 km/h (2 Bft) SO67.5 130 0 min 7,45 klux 0 min 51 W/m 12,2 C 23,5 C
06.06.2011 05:37 23,5 C 48 % 1005 hPa 0,0 l/m 11,1 km/h (2 Bft) SO67.5 130 0 min 7,12 klux 0 min 49 W/m 11,8 C 23,5 C
06.06.2011 05:35 23,2 C 50 % 1005 hPa 0,0 l/m 15,5 km/h (3 Bft) SO22.5 130 0 min 6,64 klux 0 min 45 W/m 12,2 C 23,2 C
06.06.2011 05:33 23,2 C 50 % 1005 hPa 0,0 l/m 11,9 km/h (2 Bft) SO45 125 0 min 6,01 klux 0 min 41 W/m 12,2 C 23,2 C
06.06.2011 05:31 23,0 C 50 % 1005 hPa 0,0 l/m 11,1 km/h (2 Bft) SO45 125 0 min 6,01 klux 0 min 41 W/m 12,0 C 23,0 C
06.06.2011 05:29 22,9 C 52 % 1005 hPa 0,0 l/m 11,1 km/h (2 Bft) SO45 125 0 min 5,56 klux 0 min 38 W/m 12,5 C 22,9 C
06.06.2011 05:27 22,9 C 52 % 1005 hPa 0,0 l/m 16,8 km/h (3 Bft) O-SO45 120 0 min 5,06 klux 0 min 35 W/m 12,5 C 22,9 C
06.06.2011 05:25 22,8 C 52 % 1005 hPa 0,0 l/m 10,3 km/h (2 Bft) O-SO45 105 0 min 4,52 klux 0 min 31 W/m 12,4 C 22,8 C
06.06.2011 05:23 22,8 C 52 % 1005 hPa 0,0 l/m 10,3 km/h (2 Bft) O-SO45 105 0 min 4,52 klux 0 min 31 W/m 12,4 C 22,8 C
06.06.2011 05:21 22,8 C 52 % 1005 hPa 0,0 l/m 11,8 km/h (2 Bft) SO45 125 0 min 4,04 klux 0 min 28 W/m 12,4 C 22,8 C
06.06.2011 05:20 22,7 C 53 % 1005 hPa 0,0 l/m 13,3 km/h (3 Bft) SO22.5 140 0 min 3,60 klux 0 min 25 W/m 12,6 C 22,7 C
06.06.2011 05:18 22,5 C 54 % 1005 hPa 0,0 l/m 14,8 km/h (3 Bft) SO67.5 140 0 min 3,15 klux 0 min 22 W/m 12,7 C 22,5 C
06.06.2011 05:16 22,5 C 54 % 1005 hPa 0,0 l/m 14,8 km/h (3 Bft) SO67.5 140 0 min 3,15 klux 0 min 22 W/m 12,7 C 22,5 C
06.06.2011 05:14 22,1 C 56 % 1005 hPa 0,0 l/m 9,8 km/h (2 Bft) SO45 135 0 min 2,60 klux 0 min 18 W/m 12,9 C 22,1 C
06.06.2011 05:12 21,7 C 58 % 1005 hPa 0,0 l/m 9,8 km/h (2 Bft) SO45 135 0 min 2,15 klux 0 min 15 W/m 13,1 C 21,7 C
06.06.2011 05:10 21,5 C 59 % 1005 hPa 0,0 l/m 8,9 km/h (2 Bft) SO45 125 0 min 1,70 klux 0 min 12 W/m 13,1 C 21,5 C
06.06.2011 05:07 21,5 C 59 % 1005 hPa 0,0 l/m 8,9 km/h (2 Bft) SO45 125 0 min 1,36 klux 0 min 9 W/m 13,1 C 21,5 C
06.06.2011 05:05 21,3 C 59 % 1005 hPa 0,0 l/m 10,7 km/h (2 Bft) SO45 140 0 min 1,36 klux 0 min 9 W/m 13,0 C 21,3 C
06.06.2011 05:03 21,4 C 58 % 1005 hPa 0,0 l/m 13,5 km/h (3 Bft) SO45 135 0 min 1,10 klux 0 min 8 W/m 12,8 C 21,4 C
06.06.2011 05:01 21,4 C 58 % 1005 hPa 0,0 l/m 13,5 km/h (3 Bft) SO45 135 0 min 784 lux 0 min 5 W/m 12,8 C 21,4 C
06.06.2011 04:59 21,6 C 59 % 1005 hPa 0,0 l/m 12,0 km/h (2 Bft) SO45 140 0 min 784 lux 0 min 5 W/m 13,2 C 21,6 C
06.06.2011 04:57 21,3 C 59 % 1005 hPa 0,0 l/m 12,1 km/h (2 Bft) O-SO22.5 120 0 min 784 lux 0 min 5 W/m 13,0 C 21,3 C
06.06.2011 04:55 21,3 C 59 % 1005 hPa 0,0 l/m 8,7 km/h (2 Bft) O-SO45 115 0 min 655 lux 0 min 4 W/m 13,0 C 21,3 C
06.06.2011 04:53 21,2 C 59 % 1005 hPa 0,0 l/m 8,7 km/h (2 Bft) O-SO45 115 0 min 543 lux 0 min 0 W/m 12,9 C 21,2 C
06.06.2011 04:51 21,4 C 58 % 1005 hPa 0,0 l/m 6,8 km/h (2 Bft) O45 90 0 min 436 lux 0 min 0 W/m 12,8 C 21,4 C
06.06.2011 04:50 21,4 C 58 % 1005 hPa 0,0 l/m 5,0 km/h (1 Bft) NO 50 0 min 436 lux 0 min 0 W/m 12,8 C 21,4 C
06.06.2011 04:48 21,2 C 59 % 1005 hPa 0,0 l/m 5,0 km/h (1 Bft) NO 50 0 min 356 lux 0 min 0 W/m 12,9 C 21,2 C
06.06.2011 04:46 21,1 C 59 % 1005 hPa 0,0 l/m 0,0 km/h (0 Bft) NO 45 0 min 293 lux 0 min 0 W/m 12,8 C 21,1 C
06.06.2011 04:44 21,1 C 59 % 1005 hPa 0,0 l/m 3,7 km/h (1 Bft) NO 45 0 min 239 lux 0 min 0 W/m 12,8 C 21,1 C
06.06.2011 04:42 21,0 C 60 % 1005 hPa 0,0 l/m 4,4 km/h (1 Bft) O-NO45 70 0 min 239 lux 0 min 0 W/m 12,9 C 21,0 C
06.06.2011 04:40 20,6 C 63 % 1005 hPa 0,0 l/m 4,4 km/h (1 Bft) O-NO45 70 0 min 201 lux 0 min 0 W/m 13,3 C 20,6 C
06.06.2011 04:38 20,6 C 63 % 1005 hPa 0,0 l/m 0,0 km/h (0 Bft) O-NO 70 0 min 171 lux 0 min 0 W/m 13,3 C 20,6 C
06.06.2011 04:36 20,7 C 63 % 1005 hPa 0,0 l/m 0,0 km/h (0 Bft) O-NO 70 0 min 138 lux 0 min 0 W/m 13,4 C 20,7 C
06.06.2011 04:34 21,0 C 61 % 1005 hPa 0,0 l/m 0,0 km/h (0 Bft) O-NO 70 0 min 138 lux 0 min 0 W/m 13,2 C 21,0 C
06.06.2011 04:31 21,0 C 61 % 1005 hPa 0,0 l/m 0,0 km/h (0 Bft) O-NO 70 0 min 107 lux 0 min 0 W/m 13,2 C 21,0 C
06.06.2011 04:29 21,1 C 60 % 1005 hPa 0,0 l/m 0,0 km/h (0 Bft) O-NO 70 0 min 59 lux 0 min 0 W/m 13,0 C 21,1 C
06.06.2011 04:27 21,0 C 60 % 1005 hPa 0,0 l/m 0,0 km/h (0 Bft) O-NO 70 0 min 59 lux 0 min 0 W/m 12,9 C 21,0 C
06.06.2011 04:25 21,0 C 60 % 1006 hPa 0,0 l/m 0,0 km/h (0 Bft) O-NO 70 0 min 44 lux 0 min 0 W/m 12,9 C 21,0 C
06.06.2011 04:23 20,9 C 63 % 1006 hPa 0,0 l/m 0,0 km/h (0 Bft) O-NO22.5 70 0 min 44 lux 0 min 0 W/m 13,6 C 20,9 C
06.06.2011 04:21 20,8 C 62 % 1006 hPa 0,0 l/m 0,4 km/h (0 Bft) O 85 0 min 33 lux 0 min 0 W/m 13,2 C 20,8 C
06.06.2011 04:19 20,8 C 62 % 1006 hPa 0,0 l/m 0,6 km/h (0 Bft) O22.5 95 0 min 0 lux 0 min 0 W/m 13,2 C 20,8 C
06.06.2011 04:17 20,9 C 62 % 1006 hPa 0,0 l/m 0,6 km/h (0 Bft) O22.5 95 0 min 0 lux 0 min 0 W/m 13,3 C 20,9 C
06.06.2011 04:15 21,2 C 60 % 1006 hPa 0,0 l/m 0,0 km/h (0 Bft) O 95 0 min 0 lux 0 min 0 W/m 13,1 C 21,2 C
06.06.2011 04:13 21,2 C 60 % 1006 hPa 0,0 l/m 0,0 km/h (0 Bft) O 95 0 min 0 lux 0 min 0 W/m 13,1 C 21,2 C
06.06.2011 04:11 21,7 C 58 % 1006 hPa 0,0 l/m 0,0 km/h (0 Bft) O 90 0 min 0 lux 0 min 0 W/m 13,1 C 21,7 C
06.06.2011 04:09 21,9 C 57 % 1006 hPa 0,0 l/m 0,0 km/h (0 Bft) O 90 0 min 0 lux 0 min 0 W/m 13,0 C 21,9 C
06.06.2011 04:08 21,8 C 57 % 1006 hPa 0,0 l/m 0,0 km/h (0 Bft) O-SO22.5 105 0 min 0 lux 0 min 0 W/m 12,9 C 21,8 C
06.06.2011 04:06 21,8 C 57 % 1006 hPa 0,0 l/m 0,0 km/h (0 Bft) SO 130 0 min 0 lux 0 min 0 W/m 12,9 C 21,8 C
06.06.2011 04:04 21,7 C 58 % 1006 hPa 0,0 l/m 0,0 km/h (0 Bft) SO 130 0 min 0 lux 0 min 0 W/m 13,1 C 21,7 C
06.06.2011 04:01 21,6 C 58 % 1006 hPa 0,0 l/m 0,0 km/h (0 Bft) SO 125 0 min 0 lux 0 min 0 W/m 13,0 C 21,6 C
06.06.2011 04:00 21,6 C 58 % 1006 hPa 0,0 l/m 0,0 km/h (0 Bft) SO 130 0 min 0 lux 0 min 0 W/m 13,0 C 21,6 C
06.06.2011 03:57 21,4 C 59 % 1006 hPa 0,0 l/m 0,0 km/h (0 Bft) SO 130 0 min 0 lux 0 min 0 W/m 13,0 C 21,4 C
06.06.2011 03:55 21,5 C 60 % 1006 hPa 0,0 l/m 0,0 km/h (0 Bft) SO 130 0 min 0 lux 0 min 0 W/m 13,4 C 21,5 C
06.06.2011 03:53 21,5 C 60 % 1006 hPa 0,0 l/m 0,0 km/h (0 Bft) SO22.5 135 0 min 0 lux 0 min 0 W/m 13,4 C 21,5 C
06.06.2011 03:51 21,6 C 61 % 1006 hPa 0,0 l/m 0,0 km/h (0 Bft) SO 135 0 min 0 lux 0 min 0 W/m 13,7 C 21,6 C
06.06.2011 03:49 21,5 C 61 % 1006 hPa 0,0 l/m 5,8 km/h (2 Bft) SO22.5 135 0 min 0 lux 0 min 0 W/m 13,7 C 21,5 C
06.06.2011 03:47 21,5 C 61 % 1006 hPa 0,0 l/m 5,8 km/h (2 Bft) SO22.5 135 0 min 0 lux 0 min 0 W/m 13,7 C 21,5 C
06.06.2011 03:45 21,2 C 62 % 1006 hPa 0,0 l/m 10,8 km/h (2 Bft) SO22.5 140 0 min 0 lux 0 min 0 W/m 13,6 C 21,2 C
06.06.2011 03:43 21,2 C 62 % 1006 hPa 0,0 l/m 11,4 km/h (2 Bft) SO67.5 140 0 min 0 lux 0 min 0 W/m 13,6 C 21,2 C
06.06.2011 03:41 21,2 C 62 % 1006 hPa 0,0 l/m 11,4 km/h (2 Bft) SO67.5 140 0 min 0 lux 0 min 0 W/m 13,6 C 21,2 C
06.06.2011 03:39 21,2 C 62 % 1006 hPa 0,0 l/m 7,0 km/h (2 Bft) S-SO22.5 160 0 min 0 lux 0 min 0 W/m 13,6 C 21,2 C
06.06.2011 03:37 21,4 C 61 % 1006 hPa 0,0 l/m 6,3 km/h (2 Bft) S-SO22.5 165 0 min 0 lux 0 min 0 W/m 13,6 C 21,4 C
06.06.2011 03:35 21,4 C 61 % 1006 hPa 0,0 l/m 7,0 km/h (2 Bft) SO22.5 140 0 min 0 lux 0 min 0 W/m 13,6 C 21,4 C
06.06.2011 03:33 21,5 C 60 % 1006 hPa 0,0 l/m 7,0 km/h (2 Bft) SO22.5 140 0 min 0 lux 0 min 0 W/m 13,4 C 21,5 C
06.06.2011 03:31 21,5 C 59 % 1006 hPa 0,0 l/m 4,2 km/h (1 Bft) SO22.5 145 0 min 0 lux 0 min 0 W/m 13,1 C 21,5 C
06.06.2011 03:29 21,5 C 59 % 1006 hPa 0,0 l/m 6,9 km/h (2 Bft) O45 100 0 min 0 lux 0 min 0 W/m 13,1 C 21,5 C
06.06.2011 03:27 22,2 C 56 % 1006 hPa 0,0 l/m 6,9 km/h (2 Bft) O45 100 0 min 0 lux 0 min 0 W/m 13,0 C 22,2 C
06.06.2011 03:25 22,2 C 56 % 1006 hPa 0,0 l/m 0,6 km/h (0 Bft) O-NO 65 0 min 0 lux 0 min 0 W/m 13,0 C 22,2 C
06.06.2011 03:23 22,2 C 56 % 1006 hPa 0,0 l/m 0,7 km/h (0 Bft) O-NO 60 0 min 0 lux 0 min 0 W/m 13,0 C 22,2 C
06.06.2011 03:21 22,3 C 55 % 1006 hPa 0,0 l/m 0,3 km/h (0 Bft) O-NO 60 0 min 0 lux 0 min 0 W/m 12,8 C 22,3 C
06.06.2011 03:19 22,5 C 52 % 1006 hPa 0,0 l/m 0,3 km/h (0 Bft) O-NO 60 0 min 0 lux 0 min 0 W/m 12,1 C 22,5 C
06.06.2011 03:17 22,5 C 52 % 1006 hPa 0,0 l/m 0,3 km/h (0 Bft) O-NO 60 0 min 0 lux 0 min 0 W/m 12,1 C 22,5 C
06.06.2011 03:15 22,7 C 51 % 1006 hPa 0,0 l/m 6,3 km/h (2 Bft) O45 90 0 min 0 lux 0 min 0 W/m 12,0 C 22,7 C
06.06.2011 03:13 22,6 C 51 % 1006 hPa 0,0 l/m 9,2 km/h (2 Bft) O-SO45 105 0 min 0 lux 0 min 0 W/m 11,9 C 22,6 C
06.06.2011 03:11 22,9 C 48 % 1006 hPa 0,0 l/m 9,2 km/h (2 Bft) O-SO45 105 0 min 0 lux 0 min 0 W/m 11,3 C 22,9 C
06.06.2011 03:09 22,9 C 48 % 1006 hPa 0,0 l/m 11,6 km/h (2 Bft) SO45 125 0 min 0 lux 0 min 0 W/m 11,3 C 22,9 C
06.06.2011 03:07 23,4 C 46 % 1006 hPa 0,0 l/m 13,1 km/h (3 Bft) SO22.5 130 0 min 0 lux 0 min 0 W/m 11,1 C 23,4 C
06.06.2011 03:05 23,4 C 46 % 1006 hPa 0,0 l/m 13,1 km/h (3 Bft) SO22.5 130 0 min 0 lux 0 min 0 W/m 11,1 C 23,4 C
06.06.2011 03:03 23,4 C 46 % 1006 hPa 0,0 l/m 10,9 km/h (2 Bft) SO45 130 0 min 0 lux 0 min 0 W/m 11,1 C 23,4 C
06.06.2011 03:01 23,4 C 46 % 1006 hPa 0,0 l/m 13,2 km/h (3 Bft) SO45 135 0 min 0 lux 0 min 0 W/m 11,1 C 23,4 C
06.06.2011 02:59 23,3 C 46 % 1006 hPa 0,0 l/m 17,7 km/h (3 Bft) SO22.5 135 0 min 0 lux 0 min 0 W/m 11,0 C 23,3 C
06.06.2011 02:57 23,3 C 46 % 1006 hPa 0,0 l/m 17,7 km/h (3 Bft) SO22.5 135 0 min 0 lux 0 min 0 W/m 11,0 C 23,3 C
06.06.2011 02:55 23,3 C 47 % 1005 hPa 0,0 l/m 16,2 km/h (3 Bft) SO45 130 0 min 0 lux 0 min 0 W/m 11,3 C 23,3 C
06.06.2011 02:53 23,4 C 46 % 1005 hPa 0,0 l/m 15,0 km/h (3 Bft) SO22.5 135 0 min 0 lux 0 min 0 W/m 11,1 C 23,4 C
06.06.2011 02:51 23,4 C 46 % 1005 hPa 0,0 l/m 14,3 km/h (3 Bft) SO22.5 130 0 min 0 lux 0 min 0 W/m 11,1 C 23,4 C
06.06.2011 02:50 23,4 C 46 % 1005 hPa 0,0 l/m 14,3 km/h (3 Bft) SO22.5 130 0 min 0 lux 0 min 0 W/m 11,1 C 23,4 C
06.06.2011 02:48 23,4 C 46 % 1005 hPa 0,0 l/m 16,7 km/h (3 Bft) SO45 135 0 min 0 lux 0 min 0 W/m 11,1 C 23,4 C
06.06.2011 02:45 23,4 C 46 % 1005 hPa 0,0 l/m 12,8 km/h (3 Bft) SO45 125 0 min 0 lux 0 min 0 W/m 11,1 C 23,4 C
06.06.2011 02:43 23,6 C 46 % 1005 hPa 0,0 l/m 12,8 km/h (3 Bft) SO45 125 0 min 0 lux 0 min 0 W/m 11,3 C 23,6 C
06.06.2011 02:42 23,6 C 46 % 1006 hPa 0,0 l/m 15,9 km/h (3 Bft) SO22.5 135 0 min 0 lux 0 min 0 W/m 11,3 C 23,6 C
06.06.2011 02:40 23,6 C 46 % 1006 hPa 0,0 l/m 20,3 km/h (4 Bft) SO22.5 125 0 min 0 lux 0 min 0 W/m 11,3 C 23,6 C
06.06.2011 02:38 23,6 C 46 % 1006 hPa 0,0 l/m 16,2 km/h (3 Bft) SO45 135 0 min 0 lux 0 min 0 W/m 11,3 C 23,6 C
06.06.2011 02:36 23,3 C 48 % 1006 hPa 0,0 l/m 16,2 km/h (3 Bft) SO45 135 0 min 0 lux 0 min 0 W/m 11,7 C 23,3 C
06.06.2011 02:34 23,3 C 48 % 1006 hPa 0,0 l/m 15,8 km/h (3 Bft) SO45 130 0 min 0 lux 0 min 0 W/m 11,7 C 23,3 C
06.06.2011 02:31 23,3 C 48 % 1006 hPa 0,0 l/m 17,3 km/h (3 Bft) SO22.5 140 0 min 0 lux 0 min 0 W/m 11,7 C 23,3 C
06.06.2011 02:29 23,3 C 51 % 1006 hPa 0,0 l/m 17,6 km/h (3 Bft) SO22.5 135 0 min 0 lux 0 min 0 W/m 12,6 C 23,3 C
06.06.2011 02:27 23,3 C 51 % 1006 hPa 0,0 l/m 17,6 km/h (3 Bft) SO22.5 135 0 min 0 lux 0 min 0 W/m 12,6 C 23,3 C
06.06.2011 02:25 22,8 C 55 % 1006 hPa 0,0 l/m 11,2 km/h (2 Bft) SO45 145 0 min 0 lux 0 min 0 W/m 13,3 C 22,8 C
06.06.2011 02:23 22,5 C 57 % 1006 hPa 0,0 l/m 13,1 km/h (3 Bft) SO22.5 140 0 min 0 lux 0 min 0 W/m 13,5 C 22,5 C
06.06.2011 02:21 22,5 C 57 % 1006 hPa 0,0 l/m 13,1 km/h (3 Bft) SO22.5 140 0 min 0 lux 0 min 0 W/m 13,5 C 22,5 C
06.06.2011 02:19 22,2 C 57 % 1006 hPa 0,0 l/m 10,0 km/h (2 Bft) SO22.5 135 0 min 0 lux 0 min 0 W/m 13,3 C 22,2 C
06.06.2011 02:17 22,5 C 56 % 1006 hPa 0,0 l/m 10,2 km/h (2 Bft) SO45 125 0 min 0 lux 0 min 0 W/m 13,3 C 22,5 C
06.06.2011 02:16 22,4 C 55 % 1006 hPa 0,0 l/m 9,6 km/h (2 Bft) SO22.5 125 0 min 0 lux 0 min 0 W/m 12,9 C 22,4 C
06.06.2011 02:14 22,4 C 55 % 1006 hPa 0,0 l/m 9,6 km/h (2 Bft) SO22.5 125 0 min 0 lux 0 min 0 W/m 12,9 C 22,4 C
06.06.2011 02:12 22,8 C 54 % 1006 hPa 0,0 l/m 12,1 km/h (2 Bft) SO22.5 125 0 min 0 lux 0 min 0 W/m 13,0 C 22,8 C
06.06.2011 02:10 22,8 C 55 % 1006 hPa 0,0 l/m 11,8 km/h (2 Bft) SO22.5 125 0 min 0 lux 0 min 0 W/m 13,3 C 22,8 C
06.06.2011 02:07 22,8 C 55 % 1006 hPa 0,0 l/m 11,8 km/h (2 Bft) SO22.5 125 0 min 0 lux 0 min 0 W/m 13,3 C 22,8 C
06.06.2011 02:05 22,7 C 58 % 1006 hPa 0,0 l/m 8,5 km/h (2 Bft) SO22.5 125 0 min 0 lux 0 min 0 W/m 14,0 C 22,7 C
06.06.2011 02:03 22,5 C 62 % 1006 hPa 0,0 l/m 9,6 km/h (2 Bft) SO22.5 130 0 min 0 lux 0 min 0 W/m 14,8 C 22,5 C
06.06.2011 02:02 22,5 C 62 % 1006 hPa 0,0 l/m 10,5 km/h (2 Bft) O-SO22.5 110 0 min 0 lux 0 min 0 W/m 14,8 C 22,5 C
06.06.2011 01:59 22,4 C 62 % 1006 hPa 0,0 l/m 10,5 km/h (2 Bft) O-SO22.5 110 0 min 0 lux 0 min 0 W/m 14,8 C 22,4 C
06.06.2011 01:57 22,4 C 63 % 1006 hPa 0,0 l/m 5,6 km/h (2 Bft) O-SO 105 0 min 0 lux 0 min 0 W/m 15,0 C 22,4 C
06.06.2011 01:55 22,4 C 63 % 1006 hPa 0,0 l/m 6,8 km/h (2 Bft) O22.5 100 0 min 0 lux 0 min 0 W/m 15,0 C 22,4 C
06.06.2011 01:53 22,4 C 63 % 1006 hPa 0,0 l/m 7,8 km/h (2 Bft) O22.5 95 0 min 0 lux 0 min 0 W/m 15,0 C 22,4 C
06.06.2011 01:51 22,1 C 63 % 1006 hPa 0,0 l/m 7,8 km/h (2 Bft) O22.5 95 0 min 0 lux 0 min 0 W/m 14,7 C 22,1 C
06.06.2011 01:49 22,1 C 63 % 1006 hPa 0,0 l/m 11,5 km/h (2 Bft) O22.5 95 0 min 0 lux 0 min 0 W/m 14,7 C 22,1 C
06.06.2011 01:47 22,0 C 63 % 1006 hPa 0,0 l/m 9,3 km/h (2 Bft) NO22.5 55 0 min 0 lux 0 min 0 W/m 14,6 C 22,0 C
06.06.2011 01:45 22,2 C 63 % 1006 hPa 0,0 l/m 9,3 km/h (2 Bft) NO22.5 55 0 min 0 lux 0 min 0 W/m 14,8 C 22,2 C
06.06.2011 01:43 22,2 C 63 % 1006 hPa 0,0 l/m 6,1 km/h (2 Bft) NO 55 0 min 0 lux 0 min 0 W/m 14,8 C 22,2 C
06.06.2011 01:41 22,4 C 64 % 1006 hPa 0,0 l/m 5,7 km/h (2 Bft) NO 50 0 min 0 lux 0 min 0 W/m 15,2 C 22,4 C
06.06.2011 01:39 22,3 C 66 % 1006 hPa 0,0 l/m 0,4 km/h (0 Bft) NO 55 0 min 0 lux 0 min 0 W/m 15,6 C 22,3 C
06.06.2011 01:38 22,3 C 66 % 1006 hPa 0,0 l/m 0,4 km/h (0 Bft) NO 55 0 min 0 lux 0 min 0 W/m 15,6 C 22,3 C
06.06.2011 01:36 22,0 C 66 % 1006 hPa 0,0 l/m 0,0 km/h (0 Bft) O-NO22.5 60 0 min 0 lux 0 min 0 W/m 15,3 C 22,0 C
06.06.2011 01:34 22,1 C 65 % 1006 hPa 0,0 l/m 0,0 km/h (0 Bft) O-NO 70 0 min 0 lux 0 min 0 W/m 15,2 C 22,1 C
06.06.2011 01:32 22,1 C 65 % 1006 hPa 0,0 l/m 0,0 km/h (0 Bft) O22.5 90 0 min 0 lux 0 min 0 W/m 15,2 C 22,1 C
06.06.2011 01:29 22,2 C 67 % 1006 hPa 0,0 l/m 0,0 km/h (0 Bft) O22.5 90 0 min 0 lux 0 min 0 W/m 15,8 C 22,2 C
06.06.2011 01:27 22,3 C 65 % 1007 hPa 0,0 l/m 0,0 km/h (0 Bft) O 90 0 min 0 lux 0 min 0 W/m 15,4 C 22,3 C
06.06.2011 01:25 22,3 C 65 % 1007 hPa 0,0 l/m 0,0 km/h (0 Bft) O 90 0 min 0 lux 0 min 0 W/m 15,4 C 22,3 C
06.06.2011 01:23 22,4 C 64 % 1007 hPa 0,0 l/m 0,0 km/h (0 Bft) O 90 0 min 0 lux 0 min 0 W/m 15,2 C 22,4 C
06.06.2011 01:21 22,7 C 63 % 1007 hPa 0,0 l/m 0,0 km/h (0 Bft) O 90 0 min 0 lux 0 min 0 W/m 15,3 C 22,7 C
06.06.2011 01:19 22,7 C 63 % 1007 hPa 0,0 l/m 4,0 km/h (1 Bft) O 90 0 min 0 lux 0 min 0 W/m 15,3 C 22,7 C
06.06.2011 01:17 23,1 C 61 % 1007 hPa 0,0 l/m 4,0 km/h (1 Bft) O 90 0 min 0 lux 0 min 0 W/m 15,2 C 23,1 C
06.06.2011 01:15 23,0 C 60 % 1007 hPa 0,0 l/m 4,0 km/h (1 Bft) O 90 0 min 0 lux 0 min 0 W/m 14,8 C 23,0 C
06.06.2011 01:13 23,1 C 59 % 1007 hPa 0,0 l/m 5,9 km/h (2 Bft) O 95 0 min 0 lux 0 min 0 W/m 14,6 C 23,1 C
06.06.2011 01:12 23,1 C 59 % 1007 hPa 0,0 l/m 7,4 km/h (2 Bft) O 95 0 min 0 lux 0 min 0 W/m 14,6 C 23,1 C
06.06.2011 01:10 22,9 C 59 % 1007 hPa 0,0 l/m 11,3 km/h (2 Bft) O-SO22.5 115 0 min 0 lux 0 min 0 W/m 14,5 C 22,9 C
06.06.2011 01:08 22,9 C 57 % 1007 hPa 0,0 l/m 11,3 km/h (2 Bft) O-SO22.5 115 0 min 0 lux 0 min 0 W/m 13,9 C 22,9 C
06.06.2011 01:06 22,9 C 57 % 1007 hPa 0,0 l/m 11,9 km/h (2 Bft) O-SO45 110 0 min 0 lux 0 min 0 W/m 13,9 C 22,9 C
06.06.2011 01:04 23,3 C 55 % 1007 hPa 0,0 l/m 14,3 km/h (3 Bft) S-SO45 155 0 min 0 lux 0 min 0 W/m 13,7 C 23,3 C
06.06.2011 01:01 23,3 C 54 % 1007 hPa 0,0 l/m 14,3 km/h (3 Bft) S-SO45 155 0 min 0 lux 0 min 0 W/m 13,5 C 23,3 C
06.06.2011 00:59 23,3 C 54 % 1007 hPa 0,0 l/m 17,9 km/h (3 Bft) S-SO45 160 0 min 0 lux 0 min 0 W/m 13,5 C 23,3 C
06.06.2011 00:57 23,7 C 51 % 1007 hPa 0,5 l/m 29,3 km/h (5 Bft) S22.5 170 0 min 0 lux 2 min 0 W/m 13,0 C 23,7 C
06.06.2011 00:55 24,1 C 45 % 1007 hPa 0,2 l/m 35,8 km/h (5 Bft) S45 180 0 min 0 lux 2 min 0 W/m 11,4 C 24,1 C
06.06.2011 00:53 24,1 C 45 % 1007 hPa 0,0 l/m 35,8 km/h (5 Bft) S45 180 0 min 0 lux 0 min 0 W/m 11,4 C 24,1 C
06.06.2011 00:51 25,0 C 40 % 1007 hPa 0,0 l/m 38,8 km/h (6 Bft) S-SO45 160 0 min 0 lux 0 min 0 W/m 10,4 C 25,0 C
06.06.2011 00:49 25,3 C 38 % 1007 hPa 0,0 l/m 31,6 km/h (5 Bft) S-SO22.5 160 0 min 0 lux 0 min 0 W/m 9,9 C 25,3 C
06.06.2011 00:47 25,3 C 38 % 1007 hPa 0,0 l/m 31,6 km/h (5 Bft) S-SO22.5 160 0 min 0 lux 0 min 0 W/m 9,9 C 25,3 C
06.06.2011 00:46 25,6 C 36 % 1007 hPa 0,0 l/m 33,8 km/h (5 Bft) SO22.5 140 0 min 0 lux 0 min 0 W/m 9,4 C 25,6 C
06.06.2011 00:44 25,7 C 36 % 1007 hPa 0,0 l/m 22,3 km/h (4 Bft) SO45 135 0 min 0 lux 0 min 0 W/m 9,5 C 25,7 C
06.06.2011 00:42 25,7 C 36 % 1007 hPa 0,0 l/m 21,7 km/h (4 Bft) SO45 135 0 min 0 lux 0 min 0 W/m 9,5 C 25,7 C
06.06.2011 00:40 25,6 C 36 % 1007 hPa 0,0 l/m 21,7 km/h (4 Bft) SO45 135 0 min 0 lux 0 min 0 W/m 9,4 C 25,6 C
06.06.2011 00:37 25,5 C 36 % 1007 hPa 0,0 l/m 18,0 km/h (3 Bft) O-SO22.5 115 0 min 0 lux 0 min 0 W/m 9,3 C 25,5 C
06.06.2011 00:35 25,5 C 36 % 1007 hPa 0,0 l/m 16,5 km/h (3 Bft) SO45 130 0 min 0 lux 0 min 0 W/m 9,3 C 25,5 C
06.06.2011 00:33 25,5 C 36 % 1007 hPa 0,0 l/m 13,8 km/h (3 Bft) SO22.5 125 0 min 0 lux 0 min 0 W/m 9,3 C 25,5 C
06.06.2011 00:31 25,5 C 36 % 1007 hPa 0,0 l/m 13,8 km/h (3 Bft) SO22.5 125 0 min 0 lux 0 min 0 W/m 9,3 C 25,5 C
06.06.2011 00:30 25,5 C 36 % 1007 hPa 0,0 l/m 15,1 km/h (3 Bft) SO45 125 0 min 0 lux 0 min 0 W/m 9,3 C 25,5 C
06.06.2011 00:27 25,5 C 36 % 1007 hPa 0,0 l/m 12,6 km/h (3 Bft) O-SO22.5 120 0 min 0 lux 0 min 0 W/m 9,3 C 25,5 C
06.06.2011 00:25 25,4 C 36 % 1007 hPa 0,0 l/m 12,6 km/h (3 Bft) O-SO22.5 120 0 min 0 lux 0 min 0 W/m 9,2 C 25,4 C
06.06.2011 00:23 25,4 C 36 % 1007 hPa 0,0 l/m 14,2 km/h (3 Bft) O-SO67.5 115 0 min 0 lux 0 min 0 W/m 9,2 C 25,4 C
06.06.2011 00:21 25,5 C 36 % 1007 hPa 0,0 l/m 13,9 km/h (3 Bft) O-SO45 110 0 min 0 lux 0 min 0 W/m 9,3 C 25,5 C
06.06.2011 00:19 25,7 C 35 % 1007 hPa 0,0 l/m 12,2 km/h (2 Bft) O-SO22.5 110 0 min 0 lux 0 min 0 W/m 9,1 C 25,7 C
06.06.2011 00:17 25,8 C 35 % 1007 hPa 0,0 l/m 12,2 km/h (2 Bft) O-SO22.5 110 0 min 0 lux 0 min 0 W/m 9,2 C 25,8 C
06.06.2011 00:15 25,8 C 35 % 1007 hPa 0,0 l/m 16,5 km/h (3 Bft) SO45 125 0 min 0 lux 0 min 0 W/m 9,2 C 25,8 C
06.06.2011 00:13 25,8 C 35 % 1007 hPa 0,0 l/m 16,0 km/h (3 Bft) SO67.5 135 0 min 0 lux 0 min 0 W/m 9,2 C 25,8 C
06.06.2011 00:11 25,9 C 35 % 1007 hPa 0,0 l/m 16,0 km/h (3 Bft) SO67.5 135 0 min 0 lux 0 min 0 W/m 9,3 C 25,9 C
06.06.2011 00:10 25,9 C 35 % 1007 hPa 0,0 l/m 16,0 km/h (3 Bft) SO67.5 135 0 min 0 lux 0 min 0 W/m 9,3 C 25,9 C
06.06.2011 00:07 26,0 C 34 % 1007 hPa 0,0 l/m 17,6 km/h (3 Bft) SO45 130 0 min 0 lux 0 min 0 W/m 8,9 C 26,0 C
06.06.2011 00:05 26,1 C 34 % 1007 hPa 0,0 l/m 19,3 km/h (3 Bft) SO45 125 0 min 0 lux 0 min 0 W/m 9,0 C 26,1 C
06.06.2011 00:03 26,1 C 34 % 1007 hPa 0,0 l/m 19,3 km/h (3 Bft) SO45 125 0 min 0 lux 0 min 0 W/m 9,0 C 26,1 C
06.06.2011 00:01 26,4 C 33 % 1007 hPa 0,0 l/m 17,5 km/h (3 Bft) SO45 135 0 min 0 lux 0 min 0 W/m 8,8 C 26,4 C
06.06.2011 00:02 26,4 C 33 % 1007 hPa 0,0 l/m 17,5 km/h (3 Bft) SO45 135 0 min 0 lux 0 min 0 W/m 8,8 C 26,4 C
06.06.2011 00:00 26,4 C 33 % 1007 hPa 0,0 l/m 21,6 km/h (4 Bft) SO22.5 145 0 min 0 lux 0 min 0 W/m 8,8 C 26,4 C
05.06.2011 23:58 26,4 C 33 % 1007 hPa 0,0 l/m 19,7 km/h (3 Bft) S-SO45 150 0 min 0 lux 0 min 0 W/m 8,8 C 26,4 C
05.06.2011 23:56 26,3 C 33 % 1007 hPa 0,0 l/m 19,7 km/h (3 Bft) S-SO45 150 0 min 0 lux 0 min 0 W/m 8,7 C 26,3 C
05.06.2011 23:53 26,1 C 34 % 1007 hPa 0,0 l/m 18,3 km/h (3 Bft) S-SO45 150 0 min 0 lux 0 min 0 W/m 9,0 C 26,1 C
05.06.2011 23:51 26,1 C 34 % 1007 hPa 0,0 l/m 20,6 km/h (4 Bft) SO22.5 140 0 min 0 lux 0 min 0 W/m 9,0 C 26,1 C
05.06.2011 23:49 26,0 C 34 % 1007 hPa 0,0 l/m 18,5 km/h (3 Bft) SO45 135 0 min 0 lux 0 min 0 W/m 8,9 C 26,0 C
05.06.2011 23:47 25,9 C 34 % 1007 hPa 0,0 l/m 18,5 km/h (3 Bft) SO45 135 0 min 0 lux 0 min 0 W/m 8,8 C 25,9 C
05.06.2011 23:45 25,9 C 34 % 1007 hPa 0,0 l/m 17,8 km/h (3 Bft) SO45 135 0 min 0 lux 0 min 0 W/m 8,8 C 25,9 C
05.06.2011 23:43 26,0 C 34 % 1007 hPa 0,0 l/m 17,2 km/h (3 Bft) SO22.5 140 0 min 0 lux 0 min 0 W/m 8,9 C 26,0 C
05.06.2011 23:41 26,0 C 34 % 1007 hPa 0,0 l/m 17,2 km/h (3 Bft) SO22.5 140 0 min 0 lux 0 min 0 W/m 8,9 C 26,0 C
05.06.2011 23:39 26,0 C 34 % 1007 hPa 0,0 l/m 17,3 km/h (3 Bft) SO45 135 0 min 0 lux 0 min 0 W/m 8,9 C 26,0 C
05.06.2011 23:37 26,0 C 33 % 1007 hPa 0,0 l/m 14,3 km/h (3 Bft) SO45 135 0 min 0 lux 0 min 0 W/m 8,5 C 26,0 C
05.06.2011 23:35 26,1 C 33 % 1007 hPa 0,0 l/m 15,1 km/h (3 Bft) SO22.5 135 0 min 0 lux 0 min 0 W/m 8,6 C 26,1 C
05.06.2011 23:33 26,1 C 33 % 1007 hPa 0,0 l/m 15,1 km/h (3 Bft) SO22.5 135 0 min 0 lux 0 min 0 W/m 8,6 C 26,1 C
05.06.2011 23:31 26,2 C 33 % 1007 hPa 0,0 l/m 13,2 km/h (3 Bft) SO22.5 125 0 min 0 lux 0 min 0 W/m 8,6 C 26,2 C
05.06.2011 23:29 26,3 C 33 % 1007 hPa 0,0 l/m 16,5 km/h (3 Bft) SO22.5 135 0 min 0 lux 0 min 0 W/m 8,7 C 26,3 C
05.06.2011 23:27 26,3 C 33 % 1007 hPa 0,0 l/m 16,5 km/h (3 Bft) SO22.5 135 0 min 0 lux 0 min 0 W/m 8,7 C 26,3 C
05.06.2011 23:25 26,3 C 33 % 1007 hPa 0,0 l/m 16,3 km/h (3 Bft) SO45 125 0 min 0 lux 0 min 0 W/m 8,7 C 26,3 C
05.06.2011 23:23 26,4 C 33 % 1007 hPa 0,0 l/m 14,1 km/h (3 Bft) SO45 130 0 min 0 lux 0 min 0 W/m 8,8 C 26,4 C
05.06.2011 23:21 26,4 C 33 % 1007 hPa 0,0 l/m 16,0 km/h (3 Bft) SO45 130 0 min 0 lux 0 min 0 W/m 8,8 C 26,4 C
05.06.2011 23:19 26,3 C 33 % 1007 hPa 0,0 l/m 16,0 km/h (3 Bft) SO45 130 0 min 0 lux 0 min 0 W/m 8,7 C 26,3 C
05.06.2011 23:17 26,4 C 32 % 1007 hPa 0,0 l/m 13,7 km/h (3 Bft) O-SO45 115 0 min 0 lux 0 min 0 W/m 8,4 C 26,4 C
05.06.2011 23:15 26,7 C 32 % 1007 hPa 0,0 l/m 15,5 km/h (3 Bft) SO45 140 0 min 0 lux 0 min 0 W/m 8,6 C 26,7 C
05.06.2011 23:13 26,7 C 32 % 1007 hPa 0,0 l/m 17,6 km/h (3 Bft) S-SO45 150 0 min 0 lux 0 min 0 W/m 8,6 C 26,7 C
05.06.2011 23:12 27,0 C 31 % 1007 hPa 0,0 l/m 17,6 km/h (3 Bft) S-SO45 150 0 min 0 lux 0 min 0 W/m 8,4 C 27,0 C
05.06.2011 23:10 26,8 C 32 % 1007 hPa 0,0 l/m 19,6 km/h (3 Bft) SO22.5 145 0 min 0 lux 0 min 0 W/m 8,7 C 26,8 C
05.06.2011 23:08 26,8 C 32 % 1007 hPa 0,0 l/m 14,4 km/h (3 Bft) S-SO45 150 0 min 0 lux 0 min 0 W/m 8,7 C 26,8 C
05.06.2011 23:06 26,8 C 32 % 1007 hPa 0,0 l/m 14,4 km/h (3 Bft) S-SO45 150 0 min 0 lux 0 min 0 W/m 8,7 C 26,8 C
05.06.2011 23:04 26,8 C 32 % 1007 hPa 0,0 l/m 17,0 km/h (3 Bft) S-SO45 155 0 min 0 lux 0 min 0 W/m 8,7 C 26,8 C
05.06.2011 23:01 26,8 C 32 % 1007 hPa 0,0 l/m 14,9 km/h (3 Bft) S-SO45 160 0 min 0 lux 0 min 0 W/m 8,7 C 26,8 C
05.06.2011 22:59 26,9 C 32 % 1007 hPa 0,0 l/m 14,1 km/h (3 Bft) S-SO22.5 150 0 min 0 lux 0 min 0 W/m 8,8 C 26,9 C
05.06.2011 22:57 26,9 C 32 % 1007 hPa 0,0 l/m 14,1 km/h (3 Bft) S-SO22.5 150 0 min 0 lux 0 min 0 W/m 8,8 C 26,9 C
05.06.2011 22:55 26,9 C 32 % 1007 hPa 0,0 l/m 14,1 km/h (3 Bft) S-SO22.5 150 0 min 0 lux 0 min 0 W/m 8,8 C 26,9 C
05.06.2011 22:53 26,9 C 32 % 1007 hPa 0,0 l/m 13,8 km/h (3 Bft) S-SO45 150 0 min 0 lux 0 min 0 W/m 8,8 C 26,9 C
05.06.2011 22:51 26,9 C 32 % 1007 hPa 0,0 l/m 13,4 km/h (3 Bft) S-SO22.5 150 0 min 0 lux 0 min 0 W/m 8,8 C 26,9 C
05.06.2011 22:49 26,9 C 32 % 1007 hPa 0,0 l/m 13,4 km/h (3 Bft) S-SO22.5 150 0 min 0 lux 0 min 0 W/m 8,8 C 26,9 C
05.06.2011 22:47 26,8 C 32 % 1007 hPa 0,0 l/m 10,0 km/h (2 Bft) SO22.5 140 0 min 0 lux 0 min 0 W/m 8,7 C 26,8 C
05.06.2011 22:45 26,9 C 32 % 1008 hPa 0,0 l/m 10,0 km/h (2 Bft) SO45 140 0 min 0 lux 0 min 0 W/m 8,8 C 26,9 C
05.06.2011 22:43 26,9 C 32 % 1007 hPa 0,0 l/m 10,0 km/h (2 Bft) SO45 140 0 min 0 lux 0 min 0 W/m 8,8 C 26,9 C
05.06.2011 22:41 26,9 C 32 % 1007 hPa 0,0 l/m 9,4 km/h (2 Bft) SO22.5 140 0 min 0 lux 0 min 0 W/m 8,8 C 26,9 C
05.06.2011 22:39 27,0 C 31 % 1008 hPa 0,0 l/m 8,7 km/h (2 Bft) SO22.5 145 0 min 0 lux 0 min 0 W/m 8,4 C 27,0 C
05.06.2011 22:37 27,0 C 31 % 1008 hPa 0,0 l/m 8,3 km/h (2 Bft) SO22.5 135 0 min 0 lux 0 min 0 W/m 8,4 C 27,0 C
05.06.2011 22:35 27,1 C 31 % 1008 hPa 0,0 l/m 8,3 km/h (2 Bft) SO22.5 135 0 min 0 lux 0 min 0 W/m 8,5 C 27,1 C
05.06.2011 22:33 27,3 C 31 % 1008 hPa 0,0 l/m 9,0 km/h (2 Bft) SO22.5 135 0 min 0 lux 0 min 0 W/m 8,7 C 27,3 C
05.06.2011 22:31 27,3 C 31 % 1008 hPa 0,0 l/m 10,7 km/h (2 Bft) SO45 145 0 min 0 lux 0 min 0 W/m 8,7 C 27,3 C
05.06.2011 22:30 27,4 C 30 % 1008 hPa 0,0 l/m 11,2 km/h (2 Bft) S-SO22.5 150 0 min 0 lux 0 min 0 W/m 8,3 C 27,4 C
05.06.2011 22:28 27,6 C 30 % 1008 hPa 0,0 l/m 11,2 km/h (2 Bft) S-SO22.5 150 0 min 0 lux 0 min 0 W/m 8,4 C 27,6 C
05.06.2011 22:25 27,6 C 30 % 1008 hPa 0,0 l/m 11,3 km/h (2 Bft) S-SO45 150 0 min 0 lux 0 min 0 W/m 8,4 C 27,6 C
05.06.2011 22:23 27,7 C 30 % 1008 hPa 0,0 l/m 12,0 km/h (2 Bft) S-SO22.5 165 0 min 0 lux 0 min 0 W/m 8,5 C 27,7 C
05.06.2011 22:21 27,8 C 30 % 1008 hPa 0,0 l/m 12,0 km/h (2 Bft) S-SO22.5 165 0 min 0 lux 0 min 0 W/m 8,6 C 27,8 C
05.06.2011 22:20 27,8 C 30 % 1008 hPa 0,0 l/m 14,6 km/h (3 Bft) S22.5 170 0 min 0 lux 0 min 0 W/m 8,6 C 27,8 C
05.06.2011 22:18 27,7 C 30 % 1008 hPa 0,0 l/m 13,0 km/h (3 Bft) S45 170 0 min 0 lux 0 min 0 W/m 8,5 C 27,7 C
05.06.2011 22:16 27,9 C 30 % 1008 hPa 0,0 l/m 12,6 km/h (3 Bft) S-SO45 165 0 min 0 lux 0 min 0 W/m 8,7 C 27,9 C
05.06.2011 22:14 27,7 C 30 % 1008 hPa 0,0 l/m 12,6 km/h (3 Bft) S-SO45 165 0 min 0 lux 0 min 0 W/m 8,5 C 27,7 C
05.06.2011 22:11 27,7 C 30 % 1008 hPa 0,0 l/m 11,4 km/h (2 Bft) S-SO45 155 0 min 0 lux 0 min 0 W/m 8,5 C 27,7 C
05.06.2011 22:09 27,8 C 30 % 1008 hPa 0,0 l/m 14,2 km/h (3 Bft) S-SO22.5 155 0 min 0 lux 0 min 0 W/m 8,6 C 27,8 C
05.06.2011 22:07 28,0 C 29 % 1007 hPa 0,0 l/m 14,2 km/h (3 Bft) S-SO22.5 155 0 min 0 lux 0 min 0 W/m 8,3 C 28,0 C
05.06.2011 22:05 28,0 C 29 % 1008 hPa 0,0 l/m 13,1 km/h (3 Bft) S-SO22.5 155 0 min 0 lux 0 min 0 W/m 8,3 C 28,0 C
05.06.2011 22:03 28,0 C 29 % 1008 hPa 0,0 l/m 13,5 km/h (3 Bft) S-SO22.5 155 0 min 0 lux 0 min 0 W/m 8,3 C 28,0 C
05.06.2011 22:01 28,2 C 28 % 1008 hPa 0,0 l/m 11,8 km/h (2 Bft) S-SO22.5 160 0 min 1 lux 0 min 0 W/m 7,9 C 28,2 C
05.06.2011 21:59 28,2 C 28 % 1008 hPa 0,0 l/m 11,8 km/h (2 Bft) S-SO22.5 160 0 min 1 lux 0 min 0 W/m 7,9 C 28,2 C
05.06.2011 21:57 28,4 C 28 % 1008 hPa 0,0 l/m 17,5 km/h (3 Bft) S-SO45 160 0 min 1 lux 0 min 0 W/m 8,1 C 28,4 C
05.06.2011 21:55 28,5 C 28 % 1008 hPa 0,0 l/m 16,1 km/h (3 Bft) S-SO45 150 0 min 2 lux 0 min 0 W/m 8,2 C 28,5 C
05.06.2011 21:53 28,5 C 28 % 1007 hPa 0,0 l/m 15,5 km/h (3 Bft) S45 180 0 min 4 lux 0 min 0 W/m 8,2 C 28,5 C
05.06.2011 21:51 28,5 C 27 % 1007 hPa 0,0 l/m 15,5 km/h (3 Bft) S45 180 0 min 8 lux 0 min 0 W/m 7,7 C 28,5 C
05.06.2011 21:49 28,7 C 27 % 1007 hPa 0,0 l/m 16,9 km/h (3 Bft) S22.5 170 0 min 8 lux 0 min 0 W/m 7,8 C 28,7 C
05.06.2011 21:47 28,7 C 27 % 1007 hPa 0,0 l/m 16,9 km/h (3 Bft) S22.5 170 0 min 11 lux 0 min 0 W/m 7,8 C 28,7 C
05.06.2011 21:45 28,8 C 27 % 1007 hPa 0,0 l/m 16,9 km/h (3 Bft) S22.5 170 0 min 13 lux 0 min 0 W/m 7,9 C 28,8 C
05.06.2011 21:43 28,9 C 27 % 1007 hPa 0,0 l/m 27,8 km/h (5 Bft) S45 180 0 min 19 lux 0 min 0 W/m 8,0 C 28,9 C
05.06.2011 21:41 28,9 C 27 % 1007 hPa 0,0 l/m 32,6 km/h (5 Bft) S45 170 0 min 19 lux 0 min 0 W/m 8,0 C 28,9 C
05.06.2011 21:39 29,0 C 26 % 1007 hPa 0,0 l/m 27,5 km/h (5 Bft) S45 185 0 min 23 lux 0 min 0 W/m 7,5 C 29,0 C
05.06.2011 21:37 29,0 C 26 % 1007 hPa 0,0 l/m 27,5 km/h (5 Bft) S45 185 0 min 31 lux 0 min 0 W/m 7,5 C 29,0 C
05.06.2011 21:36 29,0 C 26 % 1007 hPa 0,0 l/m 27,2 km/h (5 Bft) S45 180 0 min 41 lux 0 min 0 W/m 7,5 C 29,0 C
05.06.2011 21:34 29,1 C 26 % 1007 hPa 0,0 l/m 28,4 km/h (5 Bft) S45 180 0 min 41 lux 0 min 0 W/m 7,6 C 29,1 C
05.06.2011 21:32 29,2 C 26 % 1007 hPa 0,0 l/m 27,6 km/h (5 Bft) S45 175 0 min 52 lux 0 min 0 W/m 7,7 C 29,2 C
05.06.2011 21:29 29,2 C 26 % 1007 hPa 0,0 l/m 27,6 km/h (5 Bft) S45 175 0 min 64 lux 0 min 0 W/m 7,7 C 29,2 C
05.06.2011 21:27 29,3 C 26 % 1007 hPa 0,0 l/m 23,3 km/h (4 Bft) S45 170 0 min 81 lux 0 min 0 W/m 7,8 C 29,3 C
05.06.2011 21:25 29,3 C 26 % 1007 hPa 0,0 l/m 22,6 km/h (4 Bft) S45 180 0 min 100 lux 0 min 0 W/m 7,8 C 29,3 C
05.06.2011 21:23 29,3 C 26 % 1007 hPa 0,0 l/m 22,6 km/h (4 Bft) S45 180 0 min 100 lux 0 min 0 W/m 7,8 C 29,3 C
05.06.2011 21:21 29,3 C 25 % 1007 hPa 0,0 l/m 24,6 km/h (4 Bft) S45 170 0 min 125 lux 0 min 0 W/m 7,2 C 29,3 C
05.06.2011 21:19 29,5 C 26 % 1007 hPa 0,0 l/m 24,4 km/h (4 Bft) S45 180 0 min 163 lux 0 min 0 W/m 8,0 C 29,5 C
05.06.2011 21:17 29,4 C 26 % 1007 hPa 0,0 l/m 27,0 km/h (5 Bft) S67.5 180 0 min 204 lux 0 min 0 W/m 7,9 C 29,4 C
05.06.2011 21:15 29,4 C 26 % 1007 hPa 0,0 l/m 27,0 km/h (5 Bft) S67.5 180 0 min 204 lux 0 min 0 W/m 7,9 C 29,4 C
05.06.2011 21:13 29,5 C 26 % 1007 hPa 0,0 l/m 16,8 km/h (3 Bft) S45 185 0 min 257 lux 0 min 0 W/m 8,0 C 29,5 C
05.06.2011 21:11 29,4 C 26 % 1007 hPa 0,0 l/m 25,6 km/h (4 Bft) S45 185 0 min 371 lux 0 min 0 W/m 7,9 C 29,4 C
05.06.2011 21:09 29,4 C 26 % 1007 hPa 0,0 l/m 26,1 km/h (4 Bft) S45 170 0 min 493 lux 0 min 0 W/m 7,9 C 29,4 C
05.06.2011 21:07 29,4 C 27 % 1007 hPa 0,0 l/m 26,1 km/h (4 Bft) S45 170 0 min 493 lux 0 min 3 W/m 8,4 C 29,4 C
05.06.2011 21:05 29,5 C 26 % 1007 hPa 0,0 l/m 25,1 km/h (4 Bft) S45 180 0 min 728 lux 0 min 5 W/m 8,0 C 29,5 C
05.06.2011 21:03 29,5 C 26 % 1007 hPa 0,0 l/m 22,4 km/h (4 Bft) S-SO22.5 150 0 min 1,00 klux 0 min 7 W/m 8,0 C 29,5 C
05.06.2011 21:01 29,5 C 26 % 1007 hPa 0,0 l/m 22,4 km/h (4 Bft) S-SO22.5 150 0 min 1,14 klux 0 min 8 W/m 8,0 C 29,5 C
05.06.2011 20:59 29,6 C 26 % 1007 hPa 0,0 l/m 28,5 km/h (5 Bft) S-SO45 150 0 min 1,14 klux 0 min 8 W/m 8,0 C 29,6 C
05.06.2011 20:57 29,6 C 26 % 1007 hPa 0,0 l/m 24,3 km/h (4 Bft) SO22.5 145 0 min 1,26 klux 0 min 9 W/m 8,0 C 29,6 C
05.06.2011 20:55 29,8 C 26 % 1007 hPa 0,0 l/m 18,6 km/h (3 Bft) S-SO45 150 0 min 1,36 klux 0 min 9 W/m 8,2 C 29,8 C
05.06.2011 20:53 30,1 C 25 % 1007 hPa 0,0 l/m 18,6 km/h (3 Bft) S-SO45 150 0 min 1,50 klux 0 min 10 W/m 7,9 C 30,1 C
05.06.2011 20:52 30,1 C 25 % 1007 hPa 0,0 l/m 22,6 km/h (4 Bft) SO67.5 145 0 min 1,50 klux 0 min 10 W/m 7,9 C 30,1 C
05.06.2011 20:50 30,1 C 25 % 1007 hPa 0,0 l/m 23,1 km/h (4 Bft) SO67.5 135 0 min 1,61 klux 0 min 11 W/m 7,9 C 30,1 C
05.06.2011 20:48 30,0 C 25 % 1007 hPa 0,0 l/m 23,1 km/h (4 Bft) SO67.5 135 0 min 1,65 klux 0 min 11 W/m 7,8 C 30,0 C
05.06.2011 20:46 30,0 C 25 % 1007 hPa 0,0 l/m 23,4 km/h (4 Bft) SO45 145 0 min 1,76 klux 0 min 12 W/m 7,8 C 30,0 C
05.06.2011 20:44 29,9 C 25 % 1007 hPa 0,0 l/m 27,5 km/h (5 Bft) SO45 145 0 min 2,07 klux 0 min 14 W/m 7,7 C 29,9 C
05.06.2011 20:42 30,2 C 24 % 1007 hPa 0,0 l/m 28,3 km/h (5 Bft) SO45 140 0 min 2,07 klux 0 min 14 W/m 7,4 C 30,2 C
05.06.2011 20:40 30,2 C 24 % 1007 hPa 0,0 l/m 28,3 km/h (5 Bft) SO45 140 0 min 2,52 klux 0 min 17 W/m 7,4 C 30,2 C
05.06.2011 20:38 30,0 C 23 % 1007 hPa 0,0 l/m 28,3 km/h (5 Bft) SO45 140 0 min 2,83 klux 0 min 19 W/m 6,6 C 30,0 C
05.06.2011 20:36 30,4 C 22 % 1007 hPa 0,0 l/m 30,4 km/h (5 Bft) SO45 145 0 min 3,10 klux 0 min 21 W/m 6,3 C 30,4 C
05.06.2011 20:34 30,4 C 22 % 1007 hPa 0,0 l/m 22,8 km/h (4 Bft) SO22.5 130 0 min 3,10 klux 0 min 21 W/m 6,3 C 30,4 C
05.06.2011 20:32 30,4 C 22 % 1007 hPa 0,0 l/m 22,8 km/h (4 Bft) SO22.5 130 0 min 3,51 klux 0 min 24 W/m 6,3 C 30,4 C
05.06.2011 20:30 30,5 C 21 % 1007 hPa 0,0 l/m 14,5 km/h (3 Bft) SO45 145 0 min 3,60 klux 0 min 25 W/m 5,7 C 30,5 C
05.06.2011 20:27 30,5 C 21 % 1007 hPa 0,0 l/m 13,8 km/h (3 Bft) SO45 130 0 min 3,82 klux 0 min 26 W/m 5,7 C 30,5 C
05.06.2011 20:25 30,6 C 21 % 1007 hPa 0,0 l/m 13,8 km/h (3 Bft) SO45 130 0 min 3,82 klux 0 min 26 W/m 5,8 C 30,6 C
05.06.2011 20:23 30,5 C 21 % 1007 hPa 0,0 l/m 15,2 km/h (3 Bft) SO22.5 145 0 min 4,22 klux 0 min 29 W/m 5,7 C 30,5 C
05.06.2011 20:21 30,5 C 21 % 1007 hPa 0,0 l/m 16,4 km/h (3 Bft) S-SO45 160 0 min 5,03 klux 0 min 34 W/m 5,7 C 30,5 C
05.06.2011 20:19 30,8 C 21 % 1007 hPa 0,0 l/m 16,4 km/h (3 Bft) S-SO45 160 0 min 6,13 klux 0 min 42 W/m 5,9 C 30,8 C
05.06.2011 20:17 30,8 C 21 % 1007 hPa 0,0 l/m 16,4 km/h (3 Bft) S-SO45 160 0 min 6,13 klux 0 min 42 W/m 5,9 C 30,8 C
05.06.2011 20:15 30,7 C 21 % 1007 hPa 0,0 l/m 15,0 km/h (3 Bft) S-SO22.5 160 0 min 6,10 klux 0 min 42 W/m 5,8 C 30,7 C
05.06.2011 20:14 30,7 C 21 % 1007 hPa 0,0 l/m 9,4 km/h (2 Bft) S45 170 0 min 6,19 klux 0 min 42 W/m 5,8 C 30,7 C
05.06.2011 20:12 30,7 C 21 % 1007 hPa 0,0 l/m 18,1 km/h (3 Bft) S-SO45 165 0 min 6,42 klux 0 min 44 W/m 5,8 C 30,7 C
05.06.2011 20:10 30,7 C 0 % 1007 hPa 0,0 l/m 18,1 km/h (3 Bft) S-SO45 165 0 min 6,42 klux 0 min 44 W/m -60,0 C 30,7 C
05.06.2011 20:08 30,7 C 0 % 1007 hPa 0,0 l/m 22,5 km/h (4 Bft) S45 170 0 min 6,67 klux 0 min 46 W/m -60,0 C 30,7 C
05.06.2011 20:06 30,7 C 0 % 1007 hPa 0,0 l/m 24,4 km/h (4 Bft) S45 170 0 min 7,00 klux 0 min 48 W/m -60,0 C 30,7 C
05.06.2011 20:04 30,8 C 0 % 1007 hPa 0,0 l/m 24,4 km/h (4 Bft) S45 170 0 min 7,37 klux 0 min 50 W/m -60,0 C 30,8 C
05.06.2011 20:01 30,8 C 0 % 1007 hPa 0,0 l/m 25,1 km/h (4 Bft) S-SO45 165 0 min 7,87 klux 0 min 54 W/m -60,0 C 30,8 C
05.06.2011 20:00 30,8 C 0 % 1007 hPa 0,0 l/m 27,3 km/h (5 Bft) S-SO22.5 165 0 min 7,87 klux 0 min 54 W/m -60,0 C 30,8 C
05.06.2011 19:58 31,0 C 0 % 1007 hPa 0,0 l/m 18,9 km/h (3 Bft) S45 170 0 min 8,30 klux 0 min 57 W/m -60,0 C 31,0 C
05.06.2011 19:56 31,0 C 0 % 1007 hPa 0,0 l/m 18,9 km/h (3 Bft) S45 170 0 min 8,87 klux 0 min 61 W/m -60,0 C 31,0 C
05.06.2011 19:54 30,9 C 0 % 1007 hPa 0,0 l/m 22,3 km/h (4 Bft) S45 170 0 min 9,5 klux 0 min 65 W/m -60,0 C 30,9 C
05.06.2011 19:52 30,8 C 0 % 1007 hPa 0,0 l/m 20,0 km/h (4 Bft) S22.5 180 0 min 9,5 klux 0 min 65 W/m -60,0 C 30,8 C
05.06.2011 19:50 30,8 C 0 % 1007 hPa 0,0 l/m 16,3 km/h (3 Bft) S45 180 0 min 10,2 klux 0 min 70 W/m -60,0 C 30,8 C
05.06.2011 19:48 31,0 C 0 % 1007 hPa 0,0 l/m 16,3 km/h (3 Bft) S45 180 0 min 10,9 klux 0 min 75 W/m -60,0 C 31,0 C
05.06.2011 19:46 31,0 C 0 % 1007 hPa 0,0 l/m 29,8 km/h (5 Bft) S45 170 0 min 11,8 klux 0 min 81 W/m -60,0 C 31,0 C
05.06.2011 19:44 31,0 C 0 % 1007 hPa 0,0 l/m 32,5 km/h (5 Bft) S45 180 0 min 11,8 klux 0 min 81 W/m -60,0 C 31,0 C
05.06.2011 19:41 31,0 C 0 % 1007 hPa 0,0 l/m 32,5 km/h (5 Bft) S45 180 0 min 12,6 klux 0 min 86 W/m -60,0 C 31,0 C
05.06.2011 19:39 31,1 C 0 % 1007 hPa 0,0 l/m 23,4 km/h (4 Bft) S45 170 0 min 13,6 klux 0 min 93 W/m -60,0 C 31,1 C
05.06.2011 19:37 31,1 C 0 % 1007 hPa 0,0 l/m 20,9 km/h (4 Bft) S22.5 180 0 min 14,5 klux 0 min 99 W/m -60,0 C 31,1 C
05.06.2011 19:35 31,2 C 0 % 1007 hPa 0,0 l/m 24,3 km/h (4 Bft) S45 170 0 min 14,5 klux 0 min 99 W/m -60,0 C 31,2 C
05.06.2011 19:33 31,2 C 0 % 1007 hPa 0,0 l/m 24,3 km/h (4 Bft) S45 170 0 min 15,5 klux 0 min 106 W/m -60,0 C 31,2 C
05.06.2011 19:31 31,2 C 0 % 1007 hPa 0,0 l/m 29,6 km/h (5 Bft) S45 170 0 min 16,4 klux 0 min 112 W/m -60,0 C 31,2 C
05.06.2011 19:30 31,1 C 0 % 1007 hPa 0,0 l/m 26,3 km/h (4 Bft) S-SO45 165 0 min 17,4 klux 0 min 119 W/m -60,0 C 31,1 C
05.06.2011 19:28 31,2 C 0 % 1007 hPa 0,0 l/m 26,3 km/h (4 Bft) S-SO45 165 0 min 17,4 klux 0 min 119 W/m -60,0 C 31,2 C
05.06.2011 19:26 31,2 C 0 % 1007 hPa 0,0 l/m 28,3 km/h (5 Bft) S45 180 0 min 18,5 klux 0 min 127 W/m -60,0 C 31,2 C
05.06.2011 19:24 31,4 C 0 % 1007 hPa 0,0 l/m 20,1 km/h (4 Bft) S-SO45 150 2 min 19,7 klux 0 min 135 W/m -60,0 C 31,4 C
05.06.2011 19:22 31,3 C 0 % 1007 hPa 0,0 l/m 26,5 km/h (4 Bft) S-SO45 165 2 min 20,9 klux 0 min 143 W/m -60,0 C 31,3 C
05.06.2011 19:20 31,2 C 0 % 1007 hPa 0,0 l/m 26,5 km/h (4 Bft) S-SO45 165 2 min 22,2 klux 0 min 152 W/m -60,0 C 31,2 C
05.06.2011 19:18 31,2 C 0 % 1007 hPa 0,0 l/m 37,6 km/h (5 Bft) S22.5 175 2 min 22,2 klux 0 min 152 W/m -60,0 C 31,2 C
05.06.2011 19:16 31,2 C 0 % 1007 hPa 0,0 l/m 28,5 km/h (5 Bft) S45 185 2 min 23,9 klux 0 min 163 W/m -60,0 C 31,2 C
05.06.2011 19:14 31,4 C 0 % 1007 hPa 0,0 l/m 21,1 km/h (4 Bft) S-SW22.5 195 2 min 24,8 klux 0 min 170 W/m -60,0 C 31,4 C
05.06.2011 19:12 31,4 C 0 % 1007 hPa 0,0 l/m 21,1 km/h (4 Bft) S-SW22.5 195 2 min 25,3 klux 0 min 173 W/m -60,0 C 31,4 C
05.06.2011 19:10 31,4 C 0 % 1007 hPa 0,0 l/m 25,7 km/h (4 Bft) S45 180 2 min 25,3 klux 0 min 173 W/m -60,0 C 31,4 C
05.06.2011 19:08 31,2 C 0 % 1007 hPa 0,0 l/m 30,3 km/h (5 Bft) S22.5 180 2 min 26,5 klux 0 min 181 W/m -60,0 C 31,2 C
05.06.2011 19:06 31,2 C 0 % 1007 hPa 0,0 l/m 30,3 km/h (5 Bft) S22.5 180 2 min 27,3 klux 0 min 187 W/m -60,0 C 31,2 C
05.06.2011 19:04 31,2 C 0 % 1007 hPa 0,0 l/m 30,5 km/h (5 Bft) S45 170 2 min 27,8 klux 0 min 190 W/m -60,0 C 31,2 C
05.06.2011 19:02 31,5 C 0 % 1007 hPa 0,0 l/m 31,0 km/h (5 Bft) S45 180 2 min 27,8 klux 0 min 190 W/m -60,0 C 31,5 C
05.06.2011 19:00 31,5 C 0 % 1007 hPa 0,0 l/m 27,8 km/h (5 Bft) S-SO45 165 2 min 28,4 klux 0 min 194 W/m -60,0 C 31,5 C
_ Min-Zeit 04:40 16:59 18:07 - 17:21 - - - - - - 16:59 04:40
Minimum _ 20,6 C 0 % 1003 hPa - 0,0 km/h (0 Bft) - - - - - - -60,0 C 20,6 C
_ Max-Zeit 16:53 01:29 22:45 17:07 17:07 - - 16:32 13:28 17:16 13:28 17:30 16:53
Maximum _ 32,8 C 67 % 1008 hPa 2,7 l/m 58,4 km/h
SO (7 Bft)
- - 3 min 97,5 klux 3 min 667 W/m 16,1 C 32,8 C
Durchschnitt _ 27,9 C 30 % 1005 hPa #6,7 l/m 17,7 km/h (3 Bft) S - #9:12 h 29,7 klux #15 min. 343 W/m -4,5 C 27,9 C
© 2005 www.wetter-bild.de